<?xml version="1.0" encoding="UTF-8" standalone="no" ?>
<gpx xmlns="http://www.topografix.com/GPX/1/1" xmlns:xsi="http://www.w3.org/2001/XMLSchema-instance" xsi:schemaLocation="http://www.topografix.com/GPX/1/1 http://www.topografix.com/GPX/1/1/gpx.xsd" version="1.1" creator="VisuGPX - https://www.visugpx.com">
  <metadata>
    <name>Jas de Sylvain</name>
    <desc><![CDATA[sans difficulté.]]></desc>
  </metadata>
  <trk>
    <name><![CDATA[Jas de Sylvain_1]]></name>
    <trkseg>
      <trkpt lat="43.26652" lon="5.67109">
        <ele>228.399993</ele>
        <time>2016-06-01T06:30:00Z</time>
      </trkpt>
      <trkpt lat="43.26653" lon="5.67109">
        <ele>230.100006</ele>
        <time>2016-06-01T06:30:01Z</time>
      </trkpt>
      <trkpt lat="43.26686" lon="5.67119">
        <ele>243.8</ele>
        <time>2016-06-01T06:30:58Z</time>
      </trkpt>
      <trkpt lat="43.26698" lon="5.67135">
        <ele>244.1</ele>
        <time>2016-06-01T06:31:18Z</time>
      </trkpt>
      <trkpt lat="43.267" lon="5.67137">
        <ele>245.1</ele>
        <time>2016-06-01T06:31:19Z</time>
      </trkpt>
      <trkpt lat="43.26729" lon="5.67153">
        <ele>250.3</ele>
        <time>2016-06-01T06:31:50Z</time>
      </trkpt>
      <trkpt lat="43.26746" lon="5.67162">
        <ele>252.3</ele>
        <time>2016-06-01T06:32:08Z</time>
      </trkpt>
      <trkpt lat="43.26762" lon="5.67171">
        <ele>250.3</ele>
        <time>2016-06-01T06:32:30Z</time>
      </trkpt>
      <trkpt lat="43.26763" lon="5.67171">
        <ele>250.8</ele>
        <time>2016-06-01T06:32:31Z</time>
      </trkpt>
      <trkpt lat="43.26794" lon="5.6719">
        <ele>252</ele>
        <time>2016-06-01T06:33:14Z</time>
      </trkpt>
      <trkpt lat="43.2681" lon="5.672">
        <ele>259.6</ele>
        <time>2016-06-01T06:33:34Z</time>
      </trkpt>
      <trkpt lat="43.2681" lon="5.672">
        <ele>259.7</ele>
        <time>2016-06-01T06:33:35Z</time>
      </trkpt>
      <trkpt lat="43.26819" lon="5.67162">
        <ele>231.3</ele>
        <time>2016-06-01T06:34:40Z</time>
      </trkpt>
      <trkpt lat="43.26819" lon="5.67161">
        <ele>231.1</ele>
        <time>2016-06-01T06:34:41Z</time>
      </trkpt>
      <trkpt lat="43.26818" lon="5.67114">
        <ele>260.7</ele>
        <time>2016-06-01T06:35:32Z</time>
      </trkpt>
      <trkpt lat="43.26822" lon="5.6709">
        <ele>267.2</ele>
        <time>2016-06-01T06:35:53Z</time>
      </trkpt>
      <trkpt lat="43.26822" lon="5.67089">
        <ele>267.1</ele>
        <time>2016-06-01T06:35:54Z</time>
      </trkpt>
      <trkpt lat="43.26827" lon="5.67043">
        <ele>266.7</ele>
        <time>2016-06-01T06:36:32Z</time>
      </trkpt>
      <trkpt lat="43.26829" lon="5.6702">
        <ele>264.2</ele>
        <time>2016-06-01T06:36:51Z</time>
      </trkpt>
      <trkpt lat="43.26838" lon="5.66999">
        <ele>274.3</ele>
        <time>2016-06-01T06:37:09Z</time>
      </trkpt>
      <trkpt lat="43.26839" lon="5.66999">
        <ele>274.8</ele>
        <time>2016-06-01T06:37:10Z</time>
      </trkpt>
      <trkpt lat="43.26844" lon="5.66954">
        <ele>272.2</ele>
        <time>2016-06-01T06:37:56Z</time>
      </trkpt>
      <trkpt lat="43.2684" lon="5.6693">
        <ele>283.2</ele>
        <time>2016-06-01T06:38:21Z</time>
      </trkpt>
      <trkpt lat="43.26841" lon="5.66929">
        <ele>284.2</ele>
        <time>2016-06-01T06:38:22Z</time>
      </trkpt>
      <trkpt lat="43.26844" lon="5.66883">
        <ele>291.7</ele>
        <time>2016-06-01T06:39:05Z</time>
      </trkpt>
      <trkpt lat="43.26845" lon="5.66859">
        <ele>289</ele>
        <time>2016-06-01T06:39:26Z</time>
      </trkpt>
      <trkpt lat="43.26845" lon="5.66858">
        <ele>288.8</ele>
        <time>2016-06-01T06:39:27Z</time>
      </trkpt>
      <trkpt lat="43.26836" lon="5.66812">
        <ele>292.1</ele>
        <time>2016-06-01T06:40:15Z</time>
      </trkpt>
      <trkpt lat="43.26838" lon="5.66787">
        <ele>299.1</ele>
        <time>2016-06-01T06:40:41Z</time>
      </trkpt>
      <trkpt lat="43.26838" lon="5.66787">
        <ele>299.2</ele>
        <time>2016-06-01T06:40:42Z</time>
      </trkpt>
      <trkpt lat="43.26841" lon="5.66739">
        <ele>307.5</ele>
        <time>2016-06-01T06:41:30Z</time>
      </trkpt>
      <trkpt lat="43.26842" lon="5.66714">
        <ele>310.6</ele>
        <time>2016-06-01T06:41:59Z</time>
      </trkpt>
      <trkpt lat="43.26842" lon="5.66714">
        <ele>310.7</ele>
        <time>2016-06-01T06:42:00Z</time>
      </trkpt>
      <trkpt lat="43.26847" lon="5.6669">
        <ele>316.1</ele>
        <time>2016-06-01T06:44:21Z</time>
      </trkpt>
      <trkpt lat="43.26856" lon="5.66645">
        <ele>324.2</ele>
        <time>2016-06-01T06:45:01Z</time>
      </trkpt>
      <trkpt lat="43.26864" lon="5.66624">
        <ele>330.7</ele>
        <time>2016-06-01T06:45:22Z</time>
      </trkpt>
      <trkpt lat="43.26864" lon="5.66622">
        <ele>332</ele>
        <time>2016-06-01T06:45:23Z</time>
      </trkpt>
      <trkpt lat="43.26878" lon="5.66579">
        <ele>338.6</ele>
        <time>2016-06-01T06:46:06Z</time>
      </trkpt>
      <trkpt lat="43.26887" lon="5.66558">
        <ele>342.2</ele>
        <time>2016-06-01T06:46:28Z</time>
      </trkpt>
      <trkpt lat="43.26887" lon="5.66557">
        <ele>342.2</ele>
        <time>2016-06-01T06:46:29Z</time>
      </trkpt>
      <trkpt lat="43.26903" lon="5.66515">
        <ele>346.7</ele>
        <time>2016-06-01T06:47:14Z</time>
      </trkpt>
      <trkpt lat="43.26915" lon="5.66498">
        <ele>349.2</ele>
        <time>2016-06-01T06:47:38Z</time>
      </trkpt>
      <trkpt lat="43.26916" lon="5.66498">
        <ele>349.2</ele>
        <time>2016-06-01T06:47:39Z</time>
      </trkpt>
      <trkpt lat="43.26933" lon="5.66495">
        <ele>359</ele>
        <time>2016-06-01T06:49:56Z</time>
      </trkpt>
      <trkpt lat="43.26964" lon="5.66487">
        <ele>355.6</ele>
        <time>2016-06-01T06:51:00Z</time>
      </trkpt>
      <trkpt lat="43.26964" lon="5.66486">
        <ele>355.6</ele>
        <time>2016-06-01T06:51:01Z</time>
      </trkpt>
      <trkpt lat="43.26954" lon="5.66439">
        <ele>363.1</ele>
        <time>2016-06-01T06:51:51Z</time>
      </trkpt>
      <trkpt lat="43.26956" lon="5.66415">
        <ele>363.2</ele>
        <time>2016-06-01T06:52:16Z</time>
      </trkpt>
      <trkpt lat="43.26956" lon="5.66415">
        <ele>363.2</ele>
        <time>2016-06-01T06:52:17Z</time>
      </trkpt>
      <trkpt lat="43.2697" lon="5.66372">
        <ele>367.3</ele>
        <time>2016-06-01T06:53:00Z</time>
      </trkpt>
      <trkpt lat="43.26977" lon="5.66349">
        <ele>368.7</ele>
        <time>2016-06-01T06:53:18Z</time>
      </trkpt>
      <trkpt lat="43.26977" lon="5.66348">
        <ele>368.8</ele>
        <time>2016-06-01T06:53:19Z</time>
      </trkpt>
      <trkpt lat="43.26985" lon="5.66302">
        <ele>373.2</ele>
        <time>2016-06-01T06:53:53Z</time>
      </trkpt>
      <trkpt lat="43.2699" lon="5.6628">
        <ele>375.5</ele>
        <time>2016-06-01T06:54:12Z</time>
      </trkpt>
      <trkpt lat="43.2699" lon="5.66255">
        <ele>375.2</ele>
        <time>2016-06-01T06:54:30Z</time>
      </trkpt>
      <trkpt lat="43.2699" lon="5.66254">
        <ele>374.8</ele>
        <time>2016-06-01T06:54:31Z</time>
      </trkpt>
      <trkpt lat="43.27001" lon="5.66212">
        <ele>373.7</ele>
        <time>2016-06-01T06:55:08Z</time>
      </trkpt>
      <trkpt lat="43.27011" lon="5.66193">
        <ele>371.1</ele>
        <time>2016-06-01T06:55:25Z</time>
      </trkpt>
      <trkpt lat="43.27023" lon="5.66175">
        <ele>376.7</ele>
        <time>2016-06-01T06:55:41Z</time>
      </trkpt>
      <trkpt lat="43.27023" lon="5.66174">
        <ele>377</ele>
        <time>2016-06-01T06:55:42Z</time>
      </trkpt>
      <trkpt lat="43.27048" lon="5.66141">
        <ele>376.7</ele>
        <time>2016-06-01T06:56:34Z</time>
      </trkpt>
      <trkpt lat="43.27065" lon="5.66147">
        <ele>374.7</ele>
        <time>2016-06-01T06:56:51Z</time>
      </trkpt>
      <trkpt lat="43.27066" lon="5.66147">
        <ele>374.2</ele>
        <time>2016-06-01T06:56:52Z</time>
      </trkpt>
      <trkpt lat="43.27093" lon="5.66174">
        <ele>369.7</ele>
        <time>2016-06-01T06:57:23Z</time>
      </trkpt>
      <trkpt lat="43.27108" lon="5.66186">
        <ele>370</ele>
        <time>2016-06-01T06:57:39Z</time>
      </trkpt>
      <trkpt lat="43.27122" lon="5.662">
        <ele>368.7</ele>
        <time>2016-06-01T06:57:54Z</time>
      </trkpt>
      <trkpt lat="43.27123" lon="5.66201">
        <ele>368.5</ele>
        <time>2016-06-01T06:57:55Z</time>
      </trkpt>
      <trkpt lat="43.27151" lon="5.66227">
        <ele>368.7</ele>
        <time>2016-06-01T06:58:26Z</time>
      </trkpt>
      <trkpt lat="43.27165" lon="5.66241">
        <ele>367.2</ele>
        <time>2016-06-01T06:58:43Z</time>
      </trkpt>
      <trkpt lat="43.27182" lon="5.66241">
        <ele>373.2</ele>
        <time>2016-06-01T06:59:06Z</time>
      </trkpt>
      <trkpt lat="43.27183" lon="5.6624">
        <ele>373.6</ele>
        <time>2016-06-01T06:59:07Z</time>
      </trkpt>
      <trkpt lat="43.27212" lon="5.66213">
        <ele>379.5</ele>
        <time>2016-06-01T06:59:43Z</time>
      </trkpt>
      <trkpt lat="43.27228" lon="5.66207">
        <ele>380.8</ele>
        <time>2016-06-01T07:00:03Z</time>
      </trkpt>
      <trkpt lat="43.27245" lon="5.66203">
        <ele>382.1</ele>
        <time>2016-06-01T07:00:21Z</time>
      </trkpt>
      <trkpt lat="43.27246" lon="5.66203">
        <ele>382.2</ele>
        <time>2016-06-01T07:00:22Z</time>
      </trkpt>
      <trkpt lat="43.2728" lon="5.66211">
        <ele>383.3</ele>
        <time>2016-06-01T07:00:55Z</time>
      </trkpt>
      <trkpt lat="43.27297" lon="5.66218">
        <ele>385.5</ele>
        <time>2016-06-01T07:01:17Z</time>
      </trkpt>
      <trkpt lat="43.27314" lon="5.66223">
        <ele>388.3</ele>
        <time>2016-06-01T07:01:35Z</time>
      </trkpt>
      <trkpt lat="43.27315" lon="5.66223">
        <ele>388.2</ele>
        <time>2016-06-01T07:01:36Z</time>
      </trkpt>
      <trkpt lat="43.27347" lon="5.66238">
        <ele>394.2</ele>
        <time>2016-06-01T07:02:21Z</time>
      </trkpt>
      <trkpt lat="43.27364" lon="5.66243">
        <ele>397.2</ele>
        <time>2016-06-01T07:02:40Z</time>
      </trkpt>
      <trkpt lat="43.27365" lon="5.66244">
        <ele>397.5</ele>
        <time>2016-06-01T07:02:41Z</time>
      </trkpt>
      <trkpt lat="43.27396" lon="5.66263">
        <ele>399.3</ele>
        <time>2016-06-01T07:03:25Z</time>
      </trkpt>
      <trkpt lat="43.27414" lon="5.66269">
        <ele>402.1</ele>
        <time>2016-06-01T07:03:43Z</time>
      </trkpt>
      <trkpt lat="43.27415" lon="5.66269">
        <ele>401.8</ele>
        <time>2016-06-01T07:03:44Z</time>
      </trkpt>
      <trkpt lat="43.27449" lon="5.66275">
        <ele>402.6</ele>
        <time>2016-06-01T07:04:19Z</time>
      </trkpt>
      <trkpt lat="43.2746" lon="5.66292">
        <ele>404</ele>
        <time>2016-06-01T07:04:37Z</time>
      </trkpt>
      <trkpt lat="43.27473" lon="5.66308">
        <ele>402.6</ele>
        <time>2016-06-01T07:04:53Z</time>
      </trkpt>
      <trkpt lat="43.27474" lon="5.66309">
        <ele>402.1</ele>
        <time>2016-06-01T07:04:54Z</time>
      </trkpt>
      <trkpt lat="43.27502" lon="5.66334">
        <ele>403.7</ele>
        <time>2016-06-01T07:05:25Z</time>
      </trkpt>
      <trkpt lat="43.27519" lon="5.66341">
        <ele>404.2</ele>
        <time>2016-06-01T07:05:41Z</time>
      </trkpt>
      <trkpt lat="43.27536" lon="5.66348">
        <ele>404.7</ele>
        <time>2016-06-01T07:05:55Z</time>
      </trkpt>
      <trkpt lat="43.27537" lon="5.66349">
        <ele>404.6</ele>
        <time>2016-06-01T07:05:56Z</time>
      </trkpt>
      <trkpt lat="43.2757" lon="5.66359">
        <ele>407.3</ele>
        <time>2016-06-01T07:06:30Z</time>
      </trkpt>
      <trkpt lat="43.27588" lon="5.66362">
        <ele>410.3</ele>
        <time>2016-06-01T07:06:50Z</time>
      </trkpt>
      <trkpt lat="43.27605" lon="5.66368">
        <ele>413.2</ele>
        <time>2016-06-01T07:07:14Z</time>
      </trkpt>
      <trkpt lat="43.27606" lon="5.66368">
        <ele>413.5</ele>
        <time>2016-06-01T07:07:15Z</time>
      </trkpt>
      <trkpt lat="43.27629" lon="5.66397">
        <ele>424.7</ele>
        <time>2016-06-01T07:08:27Z</time>
      </trkpt>
      <trkpt lat="43.27629" lon="5.66397">
        <ele>424.7</ele>
        <time>2016-06-01T07:08:28Z</time>
      </trkpt>
      <trkpt lat="43.2766" lon="5.66416">
        <ele>429.6</ele>
        <time>2016-06-01T07:09:23Z</time>
      </trkpt>
      <trkpt lat="43.27668" lon="5.66437">
        <ele>432.8</ele>
        <time>2016-06-01T07:09:47Z</time>
      </trkpt>
      <trkpt lat="43.27668" lon="5.66438">
        <ele>432.8</ele>
        <time>2016-06-01T07:09:48Z</time>
      </trkpt>
      <trkpt lat="43.27682" lon="5.66477">
        <ele>438.5</ele>
        <time>2016-06-01T07:10:33Z</time>
      </trkpt>
      <trkpt lat="43.27698" lon="5.66484">
        <ele>440.8</ele>
        <time>2016-06-01T07:10:52Z</time>
      </trkpt>
      <trkpt lat="43.27699" lon="5.66484">
        <ele>441</ele>
        <time>2016-06-01T07:10:53Z</time>
      </trkpt>
      <trkpt lat="43.27732" lon="5.66494">
        <ele>446.6</ele>
        <time>2016-06-01T07:11:31Z</time>
      </trkpt>
      <trkpt lat="43.2775" lon="5.665">
        <ele>450.5</ele>
        <time>2016-06-01T07:11:54Z</time>
      </trkpt>
      <trkpt lat="43.2775" lon="5.66501">
        <ele>450.5</ele>
        <time>2016-06-01T07:11:55Z</time>
      </trkpt>
      <trkpt lat="43.27779" lon="5.66526">
        <ele>454.6</ele>
        <time>2016-06-01T07:12:38Z</time>
      </trkpt>
      <trkpt lat="43.27795" lon="5.66537">
        <ele>454.1</ele>
        <time>2016-06-01T07:12:58Z</time>
      </trkpt>
      <trkpt lat="43.27795" lon="5.66538">
        <ele>453.7</ele>
        <time>2016-06-01T07:12:59Z</time>
      </trkpt>
      <trkpt lat="43.27825" lon="5.66561">
        <ele>465.2</ele>
        <time>2016-06-01T07:17:09Z</time>
      </trkpt>
      <trkpt lat="43.27826" lon="5.66562">
        <ele>465.2</ele>
        <time>2016-06-01T07:17:10Z</time>
      </trkpt>
      <trkpt lat="43.27856" lon="5.6658">
        <ele>463</ele>
        <time>2016-06-01T07:17:45Z</time>
      </trkpt>
      <trkpt lat="43.27874" lon="5.66587">
        <ele>467.6</ele>
        <time>2016-06-01T07:18:07Z</time>
      </trkpt>
      <trkpt lat="43.27888" lon="5.66601">
        <ele>474.2</ele>
        <time>2016-06-01T07:18:27Z</time>
      </trkpt>
      <trkpt lat="43.27888" lon="5.66602">
        <ele>474.8</ele>
        <time>2016-06-01T07:18:28Z</time>
      </trkpt>
      <trkpt lat="43.27916" lon="5.66626">
        <ele>479</ele>
        <time>2016-06-01T07:19:05Z</time>
      </trkpt>
      <trkpt lat="43.27934" lon="5.6663">
        <ele>479</ele>
        <time>2016-06-01T07:19:21Z</time>
      </trkpt>
      <trkpt lat="43.2795" lon="5.66637">
        <ele>479.6</ele>
        <time>2016-06-01T07:19:38Z</time>
      </trkpt>
      <trkpt lat="43.27951" lon="5.66637">
        <ele>479.7</ele>
        <time>2016-06-01T07:19:39Z</time>
      </trkpt>
      <trkpt lat="43.27984" lon="5.66653">
        <ele>479</ele>
        <time>2016-06-01T07:20:09Z</time>
      </trkpt>
      <trkpt lat="43.28" lon="5.66663">
        <ele>478</ele>
        <time>2016-06-01T07:20:27Z</time>
      </trkpt>
      <trkpt lat="43.28015" lon="5.66675">
        <ele>478.2</ele>
        <time>2016-06-01T07:20:44Z</time>
      </trkpt>
      <trkpt lat="43.28016" lon="5.66676">
        <ele>478.3</ele>
        <time>2016-06-01T07:20:45Z</time>
      </trkpt>
      <trkpt lat="43.28043" lon="5.66704">
        <ele>480.7</ele>
        <time>2016-06-01T07:21:19Z</time>
      </trkpt>
      <trkpt lat="43.28057" lon="5.66718">
        <ele>483.3</ele>
        <time>2016-06-01T07:21:37Z</time>
      </trkpt>
      <trkpt lat="43.28071" lon="5.66733">
        <ele>485.7</ele>
        <time>2016-06-01T07:21:54Z</time>
      </trkpt>
      <trkpt lat="43.28072" lon="5.66734">
        <ele>485.8</ele>
        <time>2016-06-01T07:21:55Z</time>
      </trkpt>
      <trkpt lat="43.281" lon="5.6676">
        <ele>487.5</ele>
        <time>2016-06-01T07:22:27Z</time>
      </trkpt>
      <trkpt lat="43.28116" lon="5.66772">
        <ele>487.7</ele>
        <time>2016-06-01T07:22:44Z</time>
      </trkpt>
      <trkpt lat="43.28132" lon="5.66782">
        <ele>485.8</ele>
        <time>2016-06-01T07:22:59Z</time>
      </trkpt>
      <trkpt lat="43.28133" lon="5.66783">
        <ele>485.8</ele>
        <time>2016-06-01T07:23:00Z</time>
      </trkpt>
      <trkpt lat="43.28167" lon="5.66791">
        <ele>485.3</ele>
        <time>2016-06-01T07:23:31Z</time>
      </trkpt>
      <trkpt lat="43.28184" lon="5.66798">
        <ele>483.7</ele>
        <time>2016-06-01T07:23:48Z</time>
      </trkpt>
      <trkpt lat="43.28201" lon="5.66804">
        <ele>481.2</ele>
        <time>2016-06-01T07:24:09Z</time>
      </trkpt>
      <trkpt lat="43.28202" lon="5.66804">
        <ele>480.7</ele>
        <time>2016-06-01T07:24:10Z</time>
      </trkpt>
      <trkpt lat="43.28232" lon="5.66826">
        <ele>468</ele>
        <time>2016-06-01T07:25:03Z</time>
      </trkpt>
      <trkpt lat="43.28247" lon="5.66837">
        <ele>463.6</ele>
        <time>2016-06-01T07:25:23Z</time>
      </trkpt>
      <trkpt lat="43.28248" lon="5.66838">
        <ele>463.3</ele>
        <time>2016-06-01T07:25:24Z</time>
      </trkpt>
      <trkpt lat="43.28269" lon="5.66875">
        <ele>461.5</ele>
        <time>2016-06-01T07:25:59Z</time>
      </trkpt>
      <trkpt lat="43.28285" lon="5.66888">
        <ele>459.7</ele>
        <time>2016-06-01T07:26:17Z</time>
      </trkpt>
      <trkpt lat="43.28291" lon="5.6691">
        <ele>459.7</ele>
        <time>2016-06-01T07:26:57Z</time>
      </trkpt>
      <trkpt lat="43.28291" lon="5.66911">
        <ele>459.2</ele>
        <time>2016-06-01T07:26:58Z</time>
      </trkpt>
      <trkpt lat="43.28309" lon="5.66909">
        <ele>452.6</ele>
        <time>2016-06-01T07:31:11Z</time>
      </trkpt>
      <trkpt lat="43.28338" lon="5.66882">
        <ele>445</ele>
        <time>2016-06-01T07:32:10Z</time>
      </trkpt>
      <trkpt lat="43.28353" lon="5.6687">
        <ele>440.6</ele>
        <time>2016-06-01T07:32:34Z</time>
      </trkpt>
      <trkpt lat="43.28354" lon="5.66869">
        <ele>440.5</ele>
        <time>2016-06-01T07:32:35Z</time>
      </trkpt>
      <trkpt lat="43.28377" lon="5.66833">
        <ele>430.2</ele>
        <time>2016-06-01T07:33:22Z</time>
      </trkpt>
      <trkpt lat="43.28394" lon="5.66828">
        <ele>432.6</ele>
        <time>2016-06-01T07:33:38Z</time>
      </trkpt>
      <trkpt lat="43.28395" lon="5.66828">
        <ele>432.7</ele>
        <time>2016-06-01T07:33:39Z</time>
      </trkpt>
      <trkpt lat="43.28428" lon="5.6683">
        <ele>432.2</ele>
        <time>2016-06-01T07:34:16Z</time>
      </trkpt>
      <trkpt lat="43.28446" lon="5.66831">
        <ele>430.2</ele>
        <time>2016-06-01T07:34:37Z</time>
      </trkpt>
      <trkpt lat="43.28453" lon="5.66854">
        <ele>430.2</ele>
        <time>2016-06-01T07:35:04Z</time>
      </trkpt>
      <trkpt lat="43.28453" lon="5.66855">
        <ele>430.3</ele>
        <time>2016-06-01T07:35:05Z</time>
      </trkpt>
      <trkpt lat="43.2845" lon="5.66902">
        <ele>432.6</ele>
        <time>2016-06-01T07:35:46Z</time>
      </trkpt>
      <trkpt lat="43.28467" lon="5.66896">
        <ele>438.8</ele>
        <time>2016-06-01T07:36:38Z</time>
      </trkpt>
      <trkpt lat="43.28467" lon="5.66895">
        <ele>438.8</ele>
        <time>2016-06-01T07:36:39Z</time>
      </trkpt>
      <trkpt lat="43.285" lon="5.66897">
        <ele>448.8</ele>
        <time>2016-06-01T07:37:23Z</time>
      </trkpt>
      <trkpt lat="43.2851" lon="5.66918">
        <ele>452.1</ele>
        <time>2016-06-01T07:37:47Z</time>
      </trkpt>
      <trkpt lat="43.2851" lon="5.66919">
        <ele>452.2</ele>
        <time>2016-06-01T07:37:48Z</time>
      </trkpt>
      <trkpt lat="43.28522" lon="5.66963">
        <ele>457.6</ele>
        <time>2016-06-01T07:38:34Z</time>
      </trkpt>
      <trkpt lat="43.2853" lon="5.66984">
        <ele>462</ele>
        <time>2016-06-01T07:38:56Z</time>
      </trkpt>
      <trkpt lat="43.2853" lon="5.66985">
        <ele>462.2</ele>
        <time>2016-06-01T07:38:57Z</time>
      </trkpt>
      <trkpt lat="43.2855" lon="5.67023">
        <ele>467.5</ele>
        <time>2016-06-01T07:39:41Z</time>
      </trkpt>
      <trkpt lat="43.28559" lon="5.67043">
        <ele>469.5</ele>
        <time>2016-06-01T07:40:03Z</time>
      </trkpt>
      <trkpt lat="43.2856" lon="5.67044">
        <ele>469.5</ele>
        <time>2016-06-01T07:40:04Z</time>
      </trkpt>
      <trkpt lat="43.28568" lon="5.6709">
        <ele>467.5</ele>
        <time>2016-06-01T07:40:40Z</time>
      </trkpt>
      <trkpt lat="43.28572" lon="5.67113">
        <ele>467.2</ele>
        <time>2016-06-01T07:40:58Z</time>
      </trkpt>
      <trkpt lat="43.28575" lon="5.67137">
        <ele>467.8</ele>
        <time>2016-06-01T07:41:18Z</time>
      </trkpt>
      <trkpt lat="43.28576" lon="5.67138">
        <ele>468</ele>
        <time>2016-06-01T07:41:19Z</time>
      </trkpt>
      <trkpt lat="43.28588" lon="5.67182">
        <ele>470.6</ele>
        <time>2016-06-01T07:41:55Z</time>
      </trkpt>
      <trkpt lat="43.28594" lon="5.67205">
        <ele>469.1</ele>
        <time>2016-06-01T07:42:13Z</time>
      </trkpt>
      <trkpt lat="43.28607" lon="5.6722">
        <ele>473.6</ele>
        <time>2016-06-01T07:42:37Z</time>
      </trkpt>
      <trkpt lat="43.28608" lon="5.67221">
        <ele>473.7</ele>
        <time>2016-06-01T07:42:38Z</time>
      </trkpt>
      <trkpt lat="43.28631" lon="5.67255">
        <ele>478.7</ele>
        <time>2016-06-01T07:43:19Z</time>
      </trkpt>
      <trkpt lat="43.28642" lon="5.67273">
        <ele>480.7</ele>
        <time>2016-06-01T07:43:39Z</time>
      </trkpt>
      <trkpt lat="43.28643" lon="5.67274">
        <ele>480.7</ele>
        <time>2016-06-01T07:43:40Z</time>
      </trkpt>
      <trkpt lat="43.28657" lon="5.67317">
        <ele>483</ele>
        <time>2016-06-01T07:44:23Z</time>
      </trkpt>
      <trkpt lat="43.28656" lon="5.67341">
        <ele>483.3</ele>
        <time>2016-06-01T07:44:49Z</time>
      </trkpt>
      <trkpt lat="43.28656" lon="5.67342">
        <ele>483.2</ele>
        <time>2016-06-01T07:44:50Z</time>
      </trkpt>
      <trkpt lat="43.28648" lon="5.67387">
        <ele>491.7</ele>
        <time>2016-06-01T07:45:36Z</time>
      </trkpt>
      <trkpt lat="43.28654" lon="5.6741">
        <ele>498.2</ele>
        <time>2016-06-01T07:46:00Z</time>
      </trkpt>
      <trkpt lat="43.28654" lon="5.67411">
        <ele>498.6</ele>
        <time>2016-06-01T07:46:01Z</time>
      </trkpt>
      <trkpt lat="43.2867" lon="5.67453">
        <ele>501.8</ele>
        <time>2016-06-01T07:55:29Z</time>
      </trkpt>
      <trkpt lat="43.2867" lon="5.67454">
        <ele>501.7</ele>
        <time>2016-06-01T07:55:30Z</time>
      </trkpt>
      <trkpt lat="43.28703" lon="5.67471">
        <ele>506.7</ele>
        <time>2016-06-01T07:56:08Z</time>
      </trkpt>
      <trkpt lat="43.2872" lon="5.67478">
        <ele>511.1</ele>
        <time>2016-06-01T07:56:28Z</time>
      </trkpt>
      <trkpt lat="43.28737" lon="5.67479">
        <ele>513.7</ele>
        <time>2016-06-01T07:56:47Z</time>
      </trkpt>
      <trkpt lat="43.28738" lon="5.67479">
        <ele>513.9</ele>
        <time>2016-06-01T07:56:48Z</time>
      </trkpt>
      <trkpt lat="43.28771" lon="5.67476">
        <ele>520</ele>
        <time>2016-06-01T07:57:28Z</time>
      </trkpt>
      <trkpt lat="43.28789" lon="5.67476">
        <ele>523.7</ele>
        <time>2016-06-01T07:57:54Z</time>
      </trkpt>
      <trkpt lat="43.28789" lon="5.67476">
        <ele>523.9</ele>
        <time>2016-06-01T07:57:55Z</time>
      </trkpt>
      <trkpt lat="43.28824" lon="5.6748">
        <ele>533.4</ele>
        <time>2016-06-01T07:58:53Z</time>
      </trkpt>
      <trkpt lat="43.2884" lon="5.6747">
        <ele>535.2</ele>
        <time>2016-06-01T07:59:21Z</time>
      </trkpt>
      <trkpt lat="43.2884" lon="5.6747">
        <ele>535.4</ele>
        <time>2016-06-01T07:59:22Z</time>
      </trkpt>
      <trkpt lat="43.28874" lon="5.67465">
        <ele>544.7</ele>
        <time>2016-06-01T08:00:15Z</time>
      </trkpt>
      <trkpt lat="43.28889" lon="5.67477">
        <ele>546.9</ele>
        <time>2016-06-01T08:00:35Z</time>
      </trkpt>
      <trkpt lat="43.2889" lon="5.67477">
        <ele>547</ele>
        <time>2016-06-01T08:00:36Z</time>
      </trkpt>
      <trkpt lat="43.28923" lon="5.67476">
        <ele>545.7</ele>
        <time>2016-06-01T08:01:21Z</time>
      </trkpt>
      <trkpt lat="43.28941" lon="5.67475">
        <ele>546.9</ele>
        <time>2016-06-01T08:01:41Z</time>
      </trkpt>
      <trkpt lat="43.28942" lon="5.67475">
        <ele>546.9</ele>
        <time>2016-06-01T08:01:42Z</time>
      </trkpt>
      <trkpt lat="43.28976" lon="5.67473">
        <ele>550</ele>
        <time>2016-06-01T08:02:19Z</time>
      </trkpt>
      <trkpt lat="43.28993" lon="5.67468">
        <ele>551</ele>
        <time>2016-06-01T08:02:38Z</time>
      </trkpt>
      <trkpt lat="43.29008" lon="5.6748">
        <ele>552.9</ele>
        <time>2016-06-01T08:02:55Z</time>
      </trkpt>
      <trkpt lat="43.29009" lon="5.67481">
        <ele>552.9</ele>
        <time>2016-06-01T08:02:56Z</time>
      </trkpt>
      <trkpt lat="43.29026" lon="5.67519">
        <ele>549.7</ele>
        <time>2016-06-01T08:03:27Z</time>
      </trkpt>
      <trkpt lat="43.29033" lon="5.67541">
        <ele>548.7</ele>
        <time>2016-06-01T08:03:43Z</time>
      </trkpt>
      <trkpt lat="43.29041" lon="5.67562">
        <ele>548</ele>
        <time>2016-06-01T08:03:59Z</time>
      </trkpt>
      <trkpt lat="43.29041" lon="5.67563">
        <ele>547.9</ele>
        <time>2016-06-01T08:04:00Z</time>
      </trkpt>
      <trkpt lat="43.29058" lon="5.67603">
        <ele>552.9</ele>
        <time>2016-06-01T08:04:31Z</time>
      </trkpt>
      <trkpt lat="43.29073" lon="5.67616">
        <ele>555.7</ele>
        <time>2016-06-01T08:04:49Z</time>
      </trkpt>
      <trkpt lat="43.29086" lon="5.67632">
        <ele>558.5</ele>
        <time>2016-06-01T08:05:10Z</time>
      </trkpt>
      <trkpt lat="43.29086" lon="5.67633">
        <ele>558.7</ele>
        <time>2016-06-01T08:05:11Z</time>
      </trkpt>
      <trkpt lat="43.29116" lon="5.67655">
        <ele>563.2</ele>
        <time>2016-06-01T08:05:47Z</time>
      </trkpt>
      <trkpt lat="43.29132" lon="5.67663">
        <ele>564.2</ele>
        <time>2016-06-01T08:06:05Z</time>
      </trkpt>
      <trkpt lat="43.29148" lon="5.67672">
        <ele>564.5</ele>
        <time>2016-06-01T08:06:23Z</time>
      </trkpt>
      <trkpt lat="43.29149" lon="5.67672">
        <ele>564.5</ele>
        <time>2016-06-01T08:06:24Z</time>
      </trkpt>
      <trkpt lat="43.29182" lon="5.67684">
        <ele>567.5</ele>
        <time>2016-06-01T08:07:04Z</time>
      </trkpt>
      <trkpt lat="43.29199" lon="5.67691">
        <ele>569.2</ele>
        <time>2016-06-01T08:07:26Z</time>
      </trkpt>
      <trkpt lat="43.29199" lon="5.67691">
        <ele>569.5</ele>
        <time>2016-06-01T08:07:27Z</time>
      </trkpt>
      <trkpt lat="43.29233" lon="5.67703">
        <ele>572.7</ele>
        <time>2016-06-01T08:08:11Z</time>
      </trkpt>
      <trkpt lat="43.2925" lon="5.67709">
        <ele>576.4</ele>
        <time>2016-06-01T08:08:35Z</time>
      </trkpt>
      <trkpt lat="43.29251" lon="5.67709">
        <ele>576.5</ele>
        <time>2016-06-01T08:08:36Z</time>
      </trkpt>
      <trkpt lat="43.29284" lon="5.67702">
        <ele>583.2</ele>
        <time>2016-06-01T08:09:25Z</time>
      </trkpt>
      <trkpt lat="43.29299" lon="5.67714">
        <ele>587.4</ele>
        <time>2016-06-01T08:09:58Z</time>
      </trkpt>
      <trkpt lat="43.293" lon="5.67715">
        <ele>587.5</ele>
        <time>2016-06-01T08:09:59Z</time>
      </trkpt>
      <trkpt lat="43.29325" lon="5.67743">
        <ele>594.7</ele>
        <time>2016-06-01T08:10:59Z</time>
      </trkpt>
      <trkpt lat="43.29326" lon="5.67744">
        <ele>595.2</ele>
        <time>2016-06-01T08:11:00Z</time>
      </trkpt>
      <trkpt lat="43.2936" lon="5.67743">
        <ele>604.5</ele>
        <time>2016-06-01T08:11:50Z</time>
      </trkpt>
      <trkpt lat="43.29377" lon="5.67748">
        <ele>609.7</ele>
        <time>2016-06-01T08:12:17Z</time>
      </trkpt>
      <trkpt lat="43.29378" lon="5.67748">
        <ele>609.7</ele>
        <time>2016-06-01T08:12:18Z</time>
      </trkpt>
      <trkpt lat="43.29412" lon="5.67755">
        <ele>617.5</ele>
        <time>2016-06-01T08:13:13Z</time>
      </trkpt>
      <trkpt lat="43.29429" lon="5.67763">
        <ele>620.7</ele>
        <time>2016-06-01T08:13:38Z</time>
      </trkpt>
      <trkpt lat="43.2943" lon="5.67763">
        <ele>620.9</ele>
        <time>2016-06-01T08:13:39Z</time>
      </trkpt>
      <trkpt lat="43.29464" lon="5.6777">
        <ele>627.9</ele>
        <time>2016-06-01T08:14:26Z</time>
      </trkpt>
      <trkpt lat="43.29481" lon="5.67767">
        <ele>630.2</ele>
        <time>2016-06-01T08:14:46Z</time>
      </trkpt>
      <trkpt lat="43.29482" lon="5.67767">
        <ele>630.7</ele>
        <time>2016-06-01T08:14:47Z</time>
      </trkpt>
      <trkpt lat="43.29499" lon="5.67766">
        <ele>636.2</ele>
        <time>2016-06-01T08:22:25Z</time>
      </trkpt>
      <trkpt lat="43.29531" lon="5.67779">
        <ele>633.7</ele>
        <time>2016-06-01T08:23:08Z</time>
      </trkpt>
      <trkpt lat="43.29541" lon="5.67798">
        <ele>635.9</ele>
        <time>2016-06-01T08:23:31Z</time>
      </trkpt>
      <trkpt lat="43.29542" lon="5.67798">
        <ele>636</ele>
        <time>2016-06-01T08:23:32Z</time>
      </trkpt>
      <trkpt lat="43.29576" lon="5.67798">
        <ele>638.7</ele>
        <time>2016-06-01T08:24:11Z</time>
      </trkpt>
      <trkpt lat="43.29592" lon="5.67806">
        <ele>639.4</ele>
        <time>2016-06-01T08:24:30Z</time>
      </trkpt>
      <trkpt lat="43.29609" lon="5.67813">
        <ele>640</ele>
        <time>2016-06-01T08:24:49Z</time>
      </trkpt>
      <trkpt lat="43.2961" lon="5.67813">
        <ele>640</ele>
        <time>2016-06-01T08:24:50Z</time>
      </trkpt>
      <trkpt lat="43.29643" lon="5.67827">
        <ele>642</ele>
        <time>2016-06-01T08:25:26Z</time>
      </trkpt>
      <trkpt lat="43.2966" lon="5.67821">
        <ele>641.9</ele>
        <time>2016-06-01T08:25:49Z</time>
      </trkpt>
      <trkpt lat="43.29677" lon="5.67818">
        <ele>642.5</ele>
        <time>2016-06-01T08:26:08Z</time>
      </trkpt>
      <trkpt lat="43.29678" lon="5.67818">
        <ele>642.4</ele>
        <time>2016-06-01T08:26:09Z</time>
      </trkpt>
      <trkpt lat="43.29699" lon="5.67783">
        <ele>645</ele>
        <time>2016-06-01T08:26:41Z</time>
      </trkpt>
      <trkpt lat="43.29709" lon="5.67764">
        <ele>645.5</ele>
        <time>2016-06-01T08:26:57Z</time>
      </trkpt>
      <trkpt lat="43.29719" lon="5.67744">
        <ele>644.5</ele>
        <time>2016-06-01T08:27:13Z</time>
      </trkpt>
      <trkpt lat="43.29719" lon="5.67744">
        <ele>644.5</ele>
        <time>2016-06-01T08:27:14Z</time>
      </trkpt>
      <trkpt lat="43.29744" lon="5.67712">
        <ele>644.5</ele>
        <time>2016-06-01T08:27:48Z</time>
      </trkpt>
      <trkpt lat="43.29753" lon="5.67692">
        <ele>647.5</ele>
        <time>2016-06-01T08:28:09Z</time>
      </trkpt>
      <trkpt lat="43.29761" lon="5.67671">
        <ele>649.7</ele>
        <time>2016-06-01T08:28:29Z</time>
      </trkpt>
      <trkpt lat="43.29762" lon="5.6767">
        <ele>649.7</ele>
        <time>2016-06-01T08:28:30Z</time>
      </trkpt>
      <trkpt lat="43.29794" lon="5.67657">
        <ele>656.7</ele>
        <time>2016-06-01T08:29:24Z</time>
      </trkpt>
      <trkpt lat="43.2981" lon="5.67663">
        <ele>660.2</ele>
        <time>2016-06-01T08:29:53Z</time>
      </trkpt>
      <trkpt lat="43.29811" lon="5.67664">
        <ele>660.4</ele>
        <time>2016-06-01T08:29:54Z</time>
      </trkpt>
      <trkpt lat="43.2984" lon="5.67689">
        <ele>662.5</ele>
        <time>2016-06-01T08:30:41Z</time>
      </trkpt>
      <trkpt lat="43.29852" lon="5.67707">
        <ele>669.2</ele>
        <time>2016-06-01T08:31:04Z</time>
      </trkpt>
      <trkpt lat="43.29853" lon="5.67708">
        <ele>669.5</ele>
        <time>2016-06-01T08:31:05Z</time>
      </trkpt>
      <trkpt lat="43.29874" lon="5.67745">
        <ele>676.9</ele>
        <time>2016-06-01T08:31:54Z</time>
      </trkpt>
      <trkpt lat="43.29892" lon="5.67744">
        <ele>684.7</ele>
        <time>2016-06-01T08:32:32Z</time>
      </trkpt>
      <trkpt lat="43.29892" lon="5.67743">
        <ele>685</ele>
        <time>2016-06-01T08:32:33Z</time>
      </trkpt>
      <trkpt lat="43.29906" lon="5.6776">
        <ele>690</ele>
        <time>2016-06-01T08:34:40Z</time>
      </trkpt>
      <trkpt lat="43.29925" lon="5.67799">
        <ele>695.9</ele>
        <time>2016-06-01T08:35:29Z</time>
      </trkpt>
      <trkpt lat="43.2993" lon="5.67823">
        <ele>701.2</ele>
        <time>2016-06-01T08:36:01Z</time>
      </trkpt>
      <trkpt lat="43.2993" lon="5.67824">
        <ele>701.4</ele>
        <time>2016-06-01T08:36:02Z</time>
      </trkpt>
      <trkpt lat="43.29949" lon="5.67864">
        <ele>710.2</ele>
        <time>2016-06-01T08:36:58Z</time>
      </trkpt>
      <trkpt lat="43.29963" lon="5.67878">
        <ele>714.7</ele>
        <time>2016-06-01T08:37:29Z</time>
      </trkpt>
      <trkpt lat="43.29964" lon="5.67879">
        <ele>715</ele>
        <time>2016-06-01T08:37:30Z</time>
      </trkpt>
      <trkpt lat="43.29985" lon="5.67915">
        <ele>719.2</ele>
        <time>2016-06-01T08:40:12Z</time>
      </trkpt>
      <trkpt lat="43.29986" lon="5.67915">
        <ele>719.2</ele>
        <time>2016-06-01T08:40:13Z</time>
      </trkpt>
      <trkpt lat="43.30006" lon="5.67954">
        <ele>717.9</ele>
        <time>2016-06-01T08:40:48Z</time>
      </trkpt>
      <trkpt lat="43.30017" lon="5.67972">
        <ele>717.4</ele>
        <time>2016-06-01T08:41:04Z</time>
      </trkpt>
      <trkpt lat="43.3003" lon="5.67988">
        <ele>715</ele>
        <time>2016-06-01T08:41:22Z</time>
      </trkpt>
      <trkpt lat="43.30031" lon="5.67989">
        <ele>714.9</ele>
        <time>2016-06-01T08:41:23Z</time>
      </trkpt>
      <trkpt lat="43.30053" lon="5.68025">
        <ele>710.5</ele>
        <time>2016-06-01T08:42:01Z</time>
      </trkpt>
      <trkpt lat="43.30064" lon="5.68045">
        <ele>706.7</ele>
        <time>2016-06-01T08:42:21Z</time>
      </trkpt>
      <trkpt lat="43.30072" lon="5.68065">
        <ele>702.5</ele>
        <time>2016-06-01T08:42:40Z</time>
      </trkpt>
      <trkpt lat="43.30072" lon="5.68067">
        <ele>702.5</ele>
        <time>2016-06-01T08:42:41Z</time>
      </trkpt>
      <trkpt lat="43.30075" lon="5.68112">
        <ele>696.4</ele>
        <time>2016-06-01T08:43:20Z</time>
      </trkpt>
      <trkpt lat="43.30075" lon="5.68137">
        <ele>698.7</ele>
        <time>2016-06-01T08:43:37Z</time>
      </trkpt>
      <trkpt lat="43.30079" lon="5.6816">
        <ele>702.5</ele>
        <time>2016-06-01T08:44:18Z</time>
      </trkpt>
      <trkpt lat="43.30079" lon="5.68161">
        <ele>702.7</ele>
        <time>2016-06-01T08:44:19Z</time>
      </trkpt>
      <trkpt lat="43.30081" lon="5.68207">
        <ele>701.2</ele>
        <time>2016-06-01T08:44:57Z</time>
      </trkpt>
      <trkpt lat="43.30083" lon="5.68231">
        <ele>699.7</ele>
        <time>2016-06-01T08:45:14Z</time>
      </trkpt>
      <trkpt lat="43.30084" lon="5.68255">
        <ele>701.7</ele>
        <time>2016-06-01T08:45:33Z</time>
      </trkpt>
      <trkpt lat="43.30085" lon="5.68256">
        <ele>701.7</ele>
        <time>2016-06-01T08:45:34Z</time>
      </trkpt>
      <trkpt lat="43.30086" lon="5.6828">
        <ele>703.7</ele>
        <time>2016-06-01T08:47:37Z</time>
      </trkpt>
      <trkpt lat="43.30103" lon="5.68322">
        <ele>703.2</ele>
        <time>2016-06-01T08:48:19Z</time>
      </trkpt>
      <trkpt lat="43.30107" lon="5.68346">
        <ele>703.2</ele>
        <time>2016-06-01T08:48:38Z</time>
      </trkpt>
      <trkpt lat="43.30107" lon="5.68348">
        <ele>703.5</ele>
        <time>2016-06-01T08:48:39Z</time>
      </trkpt>
      <trkpt lat="43.30121" lon="5.6839">
        <ele>704.2</ele>
        <time>2016-06-01T08:49:14Z</time>
      </trkpt>
      <trkpt lat="43.30129" lon="5.6841">
        <ele>701.9</ele>
        <time>2016-06-01T08:49:31Z</time>
      </trkpt>
      <trkpt lat="43.30135" lon="5.68432">
        <ele>703.7</ele>
        <time>2016-06-01T08:49:49Z</time>
      </trkpt>
      <trkpt lat="43.30135" lon="5.68434">
        <ele>703.7</ele>
        <time>2016-06-01T08:49:50Z</time>
      </trkpt>
      <trkpt lat="43.3014" lon="5.6848">
        <ele>705.9</ele>
        <time>2016-06-01T08:50:24Z</time>
      </trkpt>
      <trkpt lat="43.30145" lon="5.68503">
        <ele>707</ele>
        <time>2016-06-01T08:50:40Z</time>
      </trkpt>
      <trkpt lat="43.30151" lon="5.68526">
        <ele>707.5</ele>
        <time>2016-06-01T08:50:56Z</time>
      </trkpt>
      <trkpt lat="43.30152" lon="5.68527">
        <ele>707.7</ele>
        <time>2016-06-01T08:50:57Z</time>
      </trkpt>
      <trkpt lat="43.30158" lon="5.68571">
        <ele>709.7</ele>
        <time>2016-06-01T08:51:29Z</time>
      </trkpt>
      <trkpt lat="43.30168" lon="5.68591">
        <ele>706.2</ele>
        <time>2016-06-01T08:51:48Z</time>
      </trkpt>
      <trkpt lat="43.30179" lon="5.6861">
        <ele>709.7</ele>
        <time>2016-06-01T08:52:04Z</time>
      </trkpt>
      <trkpt lat="43.3018" lon="5.68612">
        <ele>710.2</ele>
        <time>2016-06-01T08:52:05Z</time>
      </trkpt>
      <trkpt lat="43.30197" lon="5.68651">
        <ele>714.5</ele>
        <time>2016-06-01T08:52:38Z</time>
      </trkpt>
      <trkpt lat="43.30208" lon="5.68671">
        <ele>714</ele>
        <time>2016-06-01T08:52:57Z</time>
      </trkpt>
      <trkpt lat="43.30218" lon="5.68691">
        <ele>714</ele>
        <time>2016-06-01T08:53:14Z</time>
      </trkpt>
      <trkpt lat="43.30218" lon="5.68692">
        <ele>713.2</ele>
        <time>2016-06-01T08:53:15Z</time>
      </trkpt>
      <trkpt lat="43.30226" lon="5.68736">
        <ele>699.5</ele>
        <time>2016-06-01T08:53:53Z</time>
      </trkpt>
      <trkpt lat="43.30233" lon="5.68759">
        <ele>713.2</ele>
        <time>2016-06-01T08:54:07Z</time>
      </trkpt>
      <trkpt lat="43.30241" lon="5.68781">
        <ele>716.7</ele>
        <time>2016-06-01T08:54:24Z</time>
      </trkpt>
      <trkpt lat="43.30242" lon="5.68782">
        <ele>717</ele>
        <time>2016-06-01T08:54:25Z</time>
      </trkpt>
      <trkpt lat="43.30264" lon="5.68819">
        <ele>726.5</ele>
        <time>2016-06-01T08:54:59Z</time>
      </trkpt>
      <trkpt lat="43.30265" lon="5.68844">
        <ele>723.7</ele>
        <time>2016-06-01T08:55:20Z</time>
      </trkpt>
      <trkpt lat="43.3027" lon="5.68867">
        <ele>721</ele>
        <time>2016-06-01T08:55:40Z</time>
      </trkpt>
      <trkpt lat="43.30271" lon="5.68868">
        <ele>721.2</ele>
        <time>2016-06-01T08:55:41Z</time>
      </trkpt>
      <trkpt lat="43.30289" lon="5.68907">
        <ele>725</ele>
        <time>2016-06-01T08:56:17Z</time>
      </trkpt>
      <trkpt lat="43.30294" lon="5.6893">
        <ele>726.5</ele>
        <time>2016-06-01T08:56:36Z</time>
      </trkpt>
      <trkpt lat="43.303" lon="5.68953">
        <ele>727.2</ele>
        <time>2016-06-01T08:56:54Z</time>
      </trkpt>
      <trkpt lat="43.30301" lon="5.68954">
        <ele>727.5</ele>
        <time>2016-06-01T08:56:55Z</time>
      </trkpt>
      <trkpt lat="43.30304" lon="5.69">
        <ele>725.9</ele>
        <time>2016-06-01T08:57:30Z</time>
      </trkpt>
      <trkpt lat="43.30303" lon="5.69024">
        <ele>733.5</ele>
        <time>2016-06-01T08:57:43Z</time>
      </trkpt>
      <trkpt lat="43.30301" lon="5.69048">
        <ele>734.2</ele>
        <time>2016-06-01T08:58:00Z</time>
      </trkpt>
      <trkpt lat="43.30301" lon="5.69049">
        <ele>734.2</ele>
        <time>2016-06-01T08:58:01Z</time>
      </trkpt>
      <trkpt lat="43.30313" lon="5.69093">
        <ele>737.7</ele>
        <time>2016-06-01T08:58:36Z</time>
      </trkpt>
      <trkpt lat="43.3032" lon="5.69115">
        <ele>735.5</ele>
        <time>2016-06-01T08:58:54Z</time>
      </trkpt>
      <trkpt lat="43.30327" lon="5.69137">
        <ele>736</ele>
        <time>2016-06-01T08:59:11Z</time>
      </trkpt>
      <trkpt lat="43.30328" lon="5.69139">
        <ele>736.2</ele>
        <time>2016-06-01T08:59:12Z</time>
      </trkpt>
      <trkpt lat="43.30342" lon="5.69181">
        <ele>739.9</ele>
        <time>2016-06-01T08:59:48Z</time>
      </trkpt>
      <trkpt lat="43.30354" lon="5.69198">
        <ele>742.5</ele>
        <time>2016-06-01T09:00:15Z</time>
      </trkpt>
      <trkpt lat="43.30355" lon="5.69199">
        <ele>742.2</ele>
        <time>2016-06-01T09:00:16Z</time>
      </trkpt>
      <trkpt lat="43.30366" lon="5.69243">
        <ele>742.9</ele>
        <time>2016-06-01T09:00:56Z</time>
      </trkpt>
      <trkpt lat="43.30363" lon="5.69267">
        <ele>743.2</ele>
        <time>2016-06-01T09:01:13Z</time>
      </trkpt>
      <trkpt lat="43.30355" lon="5.69289">
        <ele>748.9</ele>
        <time>2016-06-01T09:01:34Z</time>
      </trkpt>
      <trkpt lat="43.30356" lon="5.69291">
        <ele>749.2</ele>
        <time>2016-06-01T09:01:35Z</time>
      </trkpt>
      <trkpt lat="43.30362" lon="5.69337">
        <ele>755</ele>
        <time>2016-06-01T09:02:13Z</time>
      </trkpt>
      <trkpt lat="43.30362" lon="5.69361">
        <ele>752.7</ele>
        <time>2016-06-01T09:02:33Z</time>
      </trkpt>
      <trkpt lat="43.30361" lon="5.69385">
        <ele>754.7</ele>
        <time>2016-06-01T09:02:53Z</time>
      </trkpt>
      <trkpt lat="43.30361" lon="5.69386">
        <ele>754.5</ele>
        <time>2016-06-01T09:02:54Z</time>
      </trkpt>
      <trkpt lat="43.30365" lon="5.69433">
        <ele>761.4</ele>
        <time>2016-06-01T09:03:32Z</time>
      </trkpt>
      <trkpt lat="43.30368" lon="5.69456">
        <ele>760.2</ele>
        <time>2016-06-01T09:03:49Z</time>
      </trkpt>
      <trkpt lat="43.3037" lon="5.6948">
        <ele>759.2</ele>
        <time>2016-06-01T09:04:07Z</time>
      </trkpt>
      <trkpt lat="43.3037" lon="5.69481">
        <ele>759.2</ele>
        <time>2016-06-01T09:04:08Z</time>
      </trkpt>
      <trkpt lat="43.30385" lon="5.69523">
        <ele>761</ele>
        <time>2016-06-01T09:04:42Z</time>
      </trkpt>
      <trkpt lat="43.30398" lon="5.69538">
        <ele>762.2</ele>
        <time>2016-06-01T09:04:59Z</time>
      </trkpt>
      <trkpt lat="43.30412" lon="5.69554">
        <ele>762</ele>
        <time>2016-06-01T09:05:17Z</time>
      </trkpt>
      <trkpt lat="43.30412" lon="5.69555">
        <ele>761.5</ele>
        <time>2016-06-01T09:05:18Z</time>
      </trkpt>
      <trkpt lat="43.30436" lon="5.69588">
        <ele>767</ele>
        <time>2016-06-01T09:05:51Z</time>
      </trkpt>
      <trkpt lat="43.30432" lon="5.69611">
        <ele>770.5</ele>
        <time>2016-06-01T09:07:13Z</time>
      </trkpt>
      <trkpt lat="43.30431" lon="5.69612">
        <ele>770</ele>
        <time>2016-06-01T09:07:14Z</time>
      </trkpt>
      <trkpt lat="43.30438" lon="5.69656">
        <ele>762</ele>
        <time>2016-06-01T09:07:37Z</time>
      </trkpt>
      <trkpt lat="43.30439" lon="5.6968">
        <ele>761.2</ele>
        <time>2016-06-01T09:07:50Z</time>
      </trkpt>
      <trkpt lat="43.30442" lon="5.69703">
        <ele>761.9</ele>
        <time>2016-06-01T09:08:04Z</time>
      </trkpt>
      <trkpt lat="43.30453" lon="5.69722">
        <ele>762.2</ele>
        <time>2016-06-01T09:08:21Z</time>
      </trkpt>
      <trkpt lat="43.30453" lon="5.69723">
        <ele>762</ele>
        <time>2016-06-01T09:08:22Z</time>
      </trkpt>
      <trkpt lat="43.30462" lon="5.69765">
        <ele>770</ele>
        <time>2016-06-01T09:11:32Z</time>
      </trkpt>
      <trkpt lat="43.30462" lon="5.69766">
        <ele>769.7</ele>
        <time>2016-06-01T09:11:33Z</time>
      </trkpt>
      <trkpt lat="43.3046" lon="5.69814">
        <ele>762.4</ele>
        <time>2016-06-01T09:12:30Z</time>
      </trkpt>
      <trkpt lat="43.30455" lon="5.69837">
        <ele>757.5</ele>
        <time>2016-06-01T09:12:59Z</time>
      </trkpt>
      <trkpt lat="43.30455" lon="5.69838">
        <ele>757.4</ele>
        <time>2016-06-01T09:13:00Z</time>
      </trkpt>
      <trkpt lat="43.30457" lon="5.69884">
        <ele>743.9</ele>
        <time>2016-06-01T09:14:01Z</time>
      </trkpt>
      <trkpt lat="43.30458" lon="5.69884">
        <ele>743.9</ele>
        <time>2016-06-01T09:14:02Z</time>
      </trkpt>
      <trkpt lat="43.30467" lon="5.69927">
        <ele>731.9</ele>
        <time>2016-06-01T09:15:10Z</time>
      </trkpt>
      <trkpt lat="43.30467" lon="5.69928">
        <ele>731.9</ele>
        <time>2016-06-01T09:15:11Z</time>
      </trkpt>
      <trkpt lat="43.30473" lon="5.69974">
        <ele>721.5</ele>
        <time>2016-06-01T09:16:06Z</time>
      </trkpt>
      <trkpt lat="43.30465" lon="5.69997">
        <ele>717.7</ele>
        <time>2016-06-01T09:16:34Z</time>
      </trkpt>
      <trkpt lat="43.30465" lon="5.69997">
        <ele>717.9</ele>
        <time>2016-06-01T09:16:35Z</time>
      </trkpt>
      <trkpt lat="43.3044" lon="5.70031">
        <ele>707.9</ele>
        <time>2016-06-01T09:17:35Z</time>
      </trkpt>
      <trkpt lat="43.3044" lon="5.70032">
        <ele>707.7</ele>
        <time>2016-06-01T09:17:36Z</time>
      </trkpt>
      <trkpt lat="43.30437" lon="5.70078">
        <ele>693.7</ele>
        <time>2016-06-01T09:18:29Z</time>
      </trkpt>
      <trkpt lat="43.30419" lon="5.70081">
        <ele>695.7</ele>
        <time>2016-06-01T09:18:54Z</time>
      </trkpt>
      <trkpt lat="43.30419" lon="5.70081">
        <ele>695.5</ele>
        <time>2016-06-01T09:18:55Z</time>
      </trkpt>
      <trkpt lat="43.30385" lon="5.70087">
        <ele>692.7</ele>
        <time>2016-06-01T09:20:47Z</time>
      </trkpt>
      <trkpt lat="43.30385" lon="5.70087">
        <ele>692.7</ele>
        <time>2016-06-01T09:20:48Z</time>
      </trkpt>
      <trkpt lat="43.30369" lon="5.7013">
        <ele>692.7</ele>
        <time>2016-06-01T09:21:38Z</time>
      </trkpt>
      <trkpt lat="43.3036" lon="5.7015">
        <ele>693</ele>
        <time>2016-06-01T09:21:55Z</time>
      </trkpt>
      <trkpt lat="43.30359" lon="5.70151">
        <ele>693.2</ele>
        <time>2016-06-01T09:21:56Z</time>
      </trkpt>
      <trkpt lat="43.30352" lon="5.70196">
        <ele>693.5</ele>
        <time>2016-06-01T09:22:31Z</time>
      </trkpt>
      <trkpt lat="43.3035" lon="5.70221">
        <ele>692.7</ele>
        <time>2016-06-01T09:22:48Z</time>
      </trkpt>
      <trkpt lat="43.30348" lon="5.70245">
        <ele>693.5</ele>
        <time>2016-06-01T09:23:04Z</time>
      </trkpt>
      <trkpt lat="43.30348" lon="5.70246">
        <ele>693.5</ele>
        <time>2016-06-01T09:23:05Z</time>
      </trkpt>
      <trkpt lat="43.30357" lon="5.70292">
        <ele>691.4</ele>
        <time>2016-06-01T09:23:38Z</time>
      </trkpt>
      <trkpt lat="43.30369" lon="5.70309">
        <ele>687.2</ele>
        <time>2016-06-01T09:23:59Z</time>
      </trkpt>
      <trkpt lat="43.30383" lon="5.70323">
        <ele>689.7</ele>
        <time>2016-06-01T09:24:16Z</time>
      </trkpt>
      <trkpt lat="43.30384" lon="5.70324">
        <ele>690.4</ele>
        <time>2016-06-01T09:24:17Z</time>
      </trkpt>
      <trkpt lat="43.304" lon="5.70334">
        <ele>696.9</ele>
        <time>2016-06-01T09:25:48Z</time>
      </trkpt>
      <trkpt lat="43.30414" lon="5.7037">
        <ele>692.7</ele>
        <time>2016-06-01T09:26:23Z</time>
      </trkpt>
      <trkpt lat="43.30405" lon="5.7039">
        <ele>696.7</ele>
        <time>2016-06-01T09:26:37Z</time>
      </trkpt>
      <trkpt lat="43.30405" lon="5.70414">
        <ele>698.4</ele>
        <time>2016-06-01T09:26:53Z</time>
      </trkpt>
      <trkpt lat="43.30405" lon="5.70415">
        <ele>698.5</ele>
        <time>2016-06-01T09:26:54Z</time>
      </trkpt>
      <trkpt lat="43.30396" lon="5.7046">
        <ele>698</ele>
        <time>2016-06-01T09:27:26Z</time>
      </trkpt>
      <trkpt lat="43.30387" lon="5.70481">
        <ele>696.5</ele>
        <time>2016-06-01T09:27:44Z</time>
      </trkpt>
      <trkpt lat="43.30395" lon="5.70502">
        <ele>686.5</ele>
        <time>2016-06-01T09:28:03Z</time>
      </trkpt>
      <trkpt lat="43.30395" lon="5.70503">
        <ele>686.4</ele>
        <time>2016-06-01T09:28:04Z</time>
      </trkpt>
      <trkpt lat="43.3041" lon="5.70545">
        <ele>676.7</ele>
        <time>2016-06-01T09:28:40Z</time>
      </trkpt>
      <trkpt lat="43.30413" lon="5.70568">
        <ele>676.7</ele>
        <time>2016-06-01T09:28:57Z</time>
      </trkpt>
      <trkpt lat="43.30418" lon="5.7059">
        <ele>681.2</ele>
        <time>2016-06-01T09:29:11Z</time>
      </trkpt>
      <trkpt lat="43.30418" lon="5.70592">
        <ele>681.4</ele>
        <time>2016-06-01T09:29:12Z</time>
      </trkpt>
      <trkpt lat="43.30431" lon="5.70635">
        <ele>681.9</ele>
        <time>2016-06-01T09:29:41Z</time>
      </trkpt>
      <trkpt lat="43.30441" lon="5.70654">
        <ele>681.5</ele>
        <time>2016-06-01T09:29:57Z</time>
      </trkpt>
      <trkpt lat="43.30449" lon="5.70675">
        <ele>680</ele>
        <time>2016-06-01T09:30:15Z</time>
      </trkpt>
      <trkpt lat="43.30449" lon="5.70677">
        <ele>680</ele>
        <time>2016-06-01T09:30:16Z</time>
      </trkpt>
      <trkpt lat="43.30447" lon="5.70721">
        <ele>680.5</ele>
        <time>2016-06-01T09:30:44Z</time>
      </trkpt>
      <trkpt lat="43.30446" lon="5.70746">
        <ele>679</ele>
        <time>2016-06-01T09:31:01Z</time>
      </trkpt>
      <trkpt lat="43.30438" lon="5.70766">
        <ele>678.5</ele>
        <time>2016-06-01T09:31:15Z</time>
      </trkpt>
      <trkpt lat="43.30434" lon="5.70789">
        <ele>678</ele>
        <time>2016-06-01T09:31:30Z</time>
      </trkpt>
      <trkpt lat="43.30434" lon="5.7079">
        <ele>678</ele>
        <time>2016-06-01T09:31:31Z</time>
      </trkpt>
      <trkpt lat="43.30433" lon="5.70836">
        <ele>675.2</ele>
        <time>2016-06-01T09:32:00Z</time>
      </trkpt>
      <trkpt lat="43.30439" lon="5.70859">
        <ele>675</ele>
        <time>2016-06-01T09:32:16Z</time>
      </trkpt>
      <trkpt lat="43.30445" lon="5.70882">
        <ele>670.7</ele>
        <time>2016-06-01T09:32:32Z</time>
      </trkpt>
      <trkpt lat="43.30445" lon="5.70883">
        <ele>670.5</ele>
        <time>2016-06-01T09:32:33Z</time>
      </trkpt>
      <trkpt lat="43.30457" lon="5.70927">
        <ele>667.5</ele>
        <time>2016-06-01T09:33:01Z</time>
      </trkpt>
      <trkpt lat="43.30459" lon="5.70951">
        <ele>667</ele>
        <time>2016-06-01T09:33:16Z</time>
      </trkpt>
      <trkpt lat="43.30468" lon="5.70971">
        <ele>666.7</ele>
        <time>2016-06-01T09:33:31Z</time>
      </trkpt>
      <trkpt lat="43.30477" lon="5.70992">
        <ele>667.4</ele>
        <time>2016-06-01T09:33:45Z</time>
      </trkpt>
      <trkpt lat="43.30477" lon="5.70993">
        <ele>667.7</ele>
        <time>2016-06-01T09:33:46Z</time>
      </trkpt>
      <trkpt lat="43.30488" lon="5.71037">
        <ele>667.2</ele>
        <time>2016-06-01T09:34:22Z</time>
      </trkpt>
      <trkpt lat="43.30482" lon="5.71014">
        <ele>674</ele>
        <time>2016-06-01T11:19:46Z</time>
      </trkpt>
      <trkpt lat="43.30482" lon="5.71013">
        <ele>674</ele>
        <time>2016-06-01T11:19:47Z</time>
      </trkpt>
      <trkpt lat="43.30466" lon="5.70971">
        <ele>670.2</ele>
        <time>2016-06-01T11:20:19Z</time>
      </trkpt>
      <trkpt lat="43.3046" lon="5.7095">
        <ele>670.5</ele>
        <time>2016-06-01T11:20:32Z</time>
      </trkpt>
      <trkpt lat="43.30458" lon="5.70925">
        <ele>671</ele>
        <time>2016-06-01T11:20:47Z</time>
      </trkpt>
      <trkpt lat="43.30457" lon="5.70924">
        <ele>671</ele>
        <time>2016-06-01T11:20:48Z</time>
      </trkpt>
      <trkpt lat="43.30445" lon="5.70879">
        <ele>670.2</ele>
        <time>2016-06-01T11:21:15Z</time>
      </trkpt>
      <trkpt lat="43.3044" lon="5.70857">
        <ele>670.5</ele>
        <time>2016-06-01T11:21:27Z</time>
      </trkpt>
      <trkpt lat="43.30437" lon="5.70834">
        <ele>671.5</ele>
        <time>2016-06-01T11:21:39Z</time>
      </trkpt>
      <trkpt lat="43.30439" lon="5.70811">
        <ele>672.2</ele>
        <time>2016-06-01T11:21:51Z</time>
      </trkpt>
      <trkpt lat="43.30439" lon="5.7081">
        <ele>672.2</ele>
        <time>2016-06-01T11:21:52Z</time>
      </trkpt>
      <trkpt lat="43.30442" lon="5.70764">
        <ele>676.5</ele>
        <time>2016-06-01T11:22:15Z</time>
      </trkpt>
      <trkpt lat="43.3045" lon="5.70743">
        <ele>678.7</ele>
        <time>2016-06-01T11:22:33Z</time>
      </trkpt>
      <trkpt lat="43.3045" lon="5.70718">
        <ele>682.2</ele>
        <time>2016-06-01T11:22:55Z</time>
      </trkpt>
      <trkpt lat="43.3045" lon="5.70717">
        <ele>682.5</ele>
        <time>2016-06-01T11:22:56Z</time>
      </trkpt>
      <trkpt lat="43.30447" lon="5.7067">
        <ele>683.2</ele>
        <time>2016-06-01T11:23:31Z</time>
      </trkpt>
      <trkpt lat="43.30437" lon="5.70651">
        <ele>685.4</ele>
        <time>2016-06-01T11:23:50Z</time>
      </trkpt>
      <trkpt lat="43.30429" lon="5.7063">
        <ele>688</ele>
        <time>2016-06-01T11:24:08Z</time>
      </trkpt>
      <trkpt lat="43.30429" lon="5.70629">
        <ele>688.2</ele>
        <time>2016-06-01T11:24:09Z</time>
      </trkpt>
      <trkpt lat="43.30416" lon="5.70586">
        <ele>687.4</ele>
        <time>2016-06-01T11:24:41Z</time>
      </trkpt>
      <trkpt lat="43.30414" lon="5.70562">
        <ele>687.9</ele>
        <time>2016-06-01T11:24:58Z</time>
      </trkpt>
      <trkpt lat="43.30408" lon="5.70539">
        <ele>689.5</ele>
        <time>2016-06-01T11:25:22Z</time>
      </trkpt>
      <trkpt lat="43.30408" lon="5.70538">
        <ele>690</ele>
        <time>2016-06-01T11:25:23Z</time>
      </trkpt>
      <trkpt lat="43.30391" lon="5.70498">
        <ele>690.7</ele>
        <time>2016-06-01T11:25:56Z</time>
      </trkpt>
      <trkpt lat="43.30393" lon="5.70474">
        <ele>697</ele>
        <time>2016-06-01T11:26:16Z</time>
      </trkpt>
      <trkpt lat="43.30398" lon="5.70451">
        <ele>699</ele>
        <time>2016-06-01T11:26:36Z</time>
      </trkpt>
      <trkpt lat="43.30398" lon="5.7045">
        <ele>699</ele>
        <time>2016-06-01T11:26:37Z</time>
      </trkpt>
      <trkpt lat="43.30405" lon="5.70405">
        <ele>698.2</ele>
        <time>2016-06-01T11:27:13Z</time>
      </trkpt>
      <trkpt lat="43.30413" lon="5.70383">
        <ele>697.7</ele>
        <time>2016-06-01T11:27:29Z</time>
      </trkpt>
      <trkpt lat="43.30415" lon="5.70358">
        <ele>697.7</ele>
        <time>2016-06-01T11:27:50Z</time>
      </trkpt>
      <trkpt lat="43.30415" lon="5.70357">
        <ele>697.7</ele>
        <time>2016-06-01T11:27:51Z</time>
      </trkpt>
      <trkpt lat="43.30387" lon="5.70333">
        <ele>698.5</ele>
        <time>2016-06-01T11:28:21Z</time>
      </trkpt>
      <trkpt lat="43.30373" lon="5.70319">
        <ele>697.2</ele>
        <time>2016-06-01T11:28:38Z</time>
      </trkpt>
      <trkpt lat="43.30361" lon="5.70302">
        <ele>692.7</ele>
        <time>2016-06-01T11:28:57Z</time>
      </trkpt>
      <trkpt lat="43.30361" lon="5.70301">
        <ele>692.5</ele>
        <time>2016-06-01T11:28:58Z</time>
      </trkpt>
      <trkpt lat="43.30349" lon="5.70258">
        <ele>691</ele>
        <time>2016-06-01T11:29:25Z</time>
      </trkpt>
      <trkpt lat="43.3035" lon="5.70234">
        <ele>691.7</ele>
        <time>2016-06-01T11:29:38Z</time>
      </trkpt>
      <trkpt lat="43.30352" lon="5.70211">
        <ele>692.7</ele>
        <time>2016-06-01T11:29:52Z</time>
      </trkpt>
      <trkpt lat="43.30354" lon="5.70187">
        <ele>692.4</ele>
        <time>2016-06-01T11:30:07Z</time>
      </trkpt>
      <trkpt lat="43.30353" lon="5.70185">
        <ele>692.2</ele>
        <time>2016-06-01T11:30:08Z</time>
      </trkpt>
      <trkpt lat="43.30365" lon="5.70142">
        <ele>688.4</ele>
        <time>2016-06-01T11:30:40Z</time>
      </trkpt>
      <trkpt lat="43.30373" lon="5.70122">
        <ele>686.7</ele>
        <time>2016-06-01T11:30:55Z</time>
      </trkpt>
      <trkpt lat="43.30382" lon="5.70101">
        <ele>687.4</ele>
        <time>2016-06-01T11:31:11Z</time>
      </trkpt>
      <trkpt lat="43.30382" lon="5.701">
        <ele>687.4</ele>
        <time>2016-06-01T11:31:12Z</time>
      </trkpt>
      <trkpt lat="43.30379" lon="5.70065">
        <ele>685</ele>
        <time>2016-06-01T11:31:49Z</time>
      </trkpt>
      <trkpt lat="43.30362" lon="5.70057">
        <ele>686.9</ele>
        <time>2016-06-01T11:32:05Z</time>
      </trkpt>
      <trkpt lat="43.30345" lon="5.70053">
        <ele>687.4</ele>
        <time>2016-06-01T11:32:20Z</time>
      </trkpt>
      <trkpt lat="43.30344" lon="5.70052">
        <ele>687.4</ele>
        <time>2016-06-01T11:32:21Z</time>
      </trkpt>
      <trkpt lat="43.30316" lon="5.70028">
        <ele>684.4</ele>
        <time>2016-06-01T11:32:52Z</time>
      </trkpt>
      <trkpt lat="43.30305" lon="5.70009">
        <ele>682.2</ele>
        <time>2016-06-01T11:33:09Z</time>
      </trkpt>
      <trkpt lat="43.30292" lon="5.69993">
        <ele>678.5</ele>
        <time>2016-06-01T11:33:28Z</time>
      </trkpt>
      <trkpt lat="43.30291" lon="5.69992">
        <ele>678.4</ele>
        <time>2016-06-01T11:33:29Z</time>
      </trkpt>
      <trkpt lat="43.30268" lon="5.69958">
        <ele>673.4</ele>
        <time>2016-06-01T11:34:03Z</time>
      </trkpt>
      <trkpt lat="43.30256" lon="5.6994">
        <ele>670.9</ele>
        <time>2016-06-01T11:34:23Z</time>
      </trkpt>
      <trkpt lat="43.30242" lon="5.69926">
        <ele>667.9</ele>
        <time>2016-06-01T11:34:41Z</time>
      </trkpt>
      <trkpt lat="43.30241" lon="5.69925">
        <ele>667.7</ele>
        <time>2016-06-01T11:34:42Z</time>
      </trkpt>
      <trkpt lat="43.30214" lon="5.69897">
        <ele>663</ele>
        <time>2016-06-01T11:35:20Z</time>
      </trkpt>
      <trkpt lat="43.302" lon="5.69881">
        <ele>659.4</ele>
        <time>2016-06-01T11:35:39Z</time>
      </trkpt>
      <trkpt lat="43.30184" lon="5.69872">
        <ele>657.5</ele>
        <time>2016-06-01T11:35:57Z</time>
      </trkpt>
      <trkpt lat="43.30183" lon="5.69871">
        <ele>657</ele>
        <time>2016-06-01T11:35:58Z</time>
      </trkpt>
      <trkpt lat="43.30152" lon="5.69851">
        <ele>651.7</ele>
        <time>2016-06-01T11:36:33Z</time>
      </trkpt>
      <trkpt lat="43.30136" lon="5.69841">
        <ele>650.2</ele>
        <time>2016-06-01T11:36:49Z</time>
      </trkpt>
      <trkpt lat="43.30124" lon="5.69825">
        <ele>646.9</ele>
        <time>2016-06-01T11:37:04Z</time>
      </trkpt>
      <trkpt lat="43.30123" lon="5.69824">
        <ele>646.4</ele>
        <time>2016-06-01T11:37:05Z</time>
      </trkpt>
      <trkpt lat="43.30105" lon="5.69784">
        <ele>638.9</ele>
        <time>2016-06-01T11:37:34Z</time>
      </trkpt>
      <trkpt lat="43.301" lon="5.69761">
        <ele>639.9</ele>
        <time>2016-06-01T11:37:48Z</time>
      </trkpt>
      <trkpt lat="43.30089" lon="5.69743">
        <ele>635.5</ele>
        <time>2016-06-01T11:38:02Z</time>
      </trkpt>
      <trkpt lat="43.30089" lon="5.69719">
        <ele>638.5</ele>
        <time>2016-06-01T11:38:16Z</time>
      </trkpt>
      <trkpt lat="43.30089" lon="5.69717">
        <ele>639</ele>
        <time>2016-06-01T11:38:17Z</time>
      </trkpt>
      <trkpt lat="43.30089" lon="5.69671">
        <ele>642.2</ele>
        <time>2016-06-01T11:38:46Z</time>
      </trkpt>
      <trkpt lat="43.30085" lon="5.69646">
        <ele>638</ele>
        <time>2016-06-01T11:39:02Z</time>
      </trkpt>
      <trkpt lat="43.3008" lon="5.69625">
        <ele>636</ele>
        <time>2016-06-01T11:39:17Z</time>
      </trkpt>
      <trkpt lat="43.30079" lon="5.69623">
        <ele>636</ele>
        <time>2016-06-01T11:39:18Z</time>
      </trkpt>
      <trkpt lat="43.30069" lon="5.6958">
        <ele>633.7</ele>
        <time>2016-06-01T11:39:47Z</time>
      </trkpt>
      <trkpt lat="43.30066" lon="5.69556">
        <ele>632.7</ele>
        <time>2016-06-01T11:40:03Z</time>
      </trkpt>
      <trkpt lat="43.30062" lon="5.69533">
        <ele>631.4</ele>
        <time>2016-06-01T11:40:18Z</time>
      </trkpt>
      <trkpt lat="43.30062" lon="5.69531">
        <ele>631.5</ele>
        <time>2016-06-01T11:40:19Z</time>
      </trkpt>
      <trkpt lat="43.30059" lon="5.69485">
        <ele>628</ele>
        <time>2016-06-01T11:40:49Z</time>
      </trkpt>
      <trkpt lat="43.30052" lon="5.69464">
        <ele>627.5</ele>
        <time>2016-06-01T11:41:04Z</time>
      </trkpt>
      <trkpt lat="43.30044" lon="5.69444">
        <ele>628</ele>
        <time>2016-06-01T11:41:18Z</time>
      </trkpt>
      <trkpt lat="43.30037" lon="5.69421">
        <ele>629.2</ele>
        <time>2016-06-01T11:41:33Z</time>
      </trkpt>
      <trkpt lat="43.30036" lon="5.69419">
        <ele>630</ele>
        <time>2016-06-01T11:41:34Z</time>
      </trkpt>
      <trkpt lat="43.30029" lon="5.69375">
        <ele>624.5</ele>
        <time>2016-06-01T11:42:04Z</time>
      </trkpt>
      <trkpt lat="43.30028" lon="5.69352">
        <ele>620</ele>
        <time>2016-06-01T11:42:17Z</time>
      </trkpt>
      <trkpt lat="43.30026" lon="5.69328">
        <ele>619.2</ele>
        <time>2016-06-01T11:42:30Z</time>
      </trkpt>
      <trkpt lat="43.30021" lon="5.69305">
        <ele>618.7</ele>
        <time>2016-06-01T11:42:43Z</time>
      </trkpt>
      <trkpt lat="43.30021" lon="5.69304">
        <ele>618.7</ele>
        <time>2016-06-01T11:42:44Z</time>
      </trkpt>
      <trkpt lat="43.30006" lon="5.69263">
        <ele>621.5</ele>
        <time>2016-06-01T11:43:10Z</time>
      </trkpt>
      <trkpt lat="43.29999" lon="5.6924">
        <ele>622.5</ele>
        <time>2016-06-01T11:43:24Z</time>
      </trkpt>
      <trkpt lat="43.29992" lon="5.69218">
        <ele>620</ele>
        <time>2016-06-01T11:43:38Z</time>
      </trkpt>
      <trkpt lat="43.29981" lon="5.69199">
        <ele>618.7</ele>
        <time>2016-06-01T11:43:53Z</time>
      </trkpt>
      <trkpt lat="43.2998" lon="5.69197">
        <ele>618.7</ele>
        <time>2016-06-01T11:43:54Z</time>
      </trkpt>
      <trkpt lat="43.29965" lon="5.69156">
        <ele>618.7</ele>
        <time>2016-06-01T11:44:19Z</time>
      </trkpt>
      <trkpt lat="43.29959" lon="5.69134">
        <ele>618.2</ele>
        <time>2016-06-01T11:44:33Z</time>
      </trkpt>
      <trkpt lat="43.29952" lon="5.69113">
        <ele>617.5</ele>
        <time>2016-06-01T11:44:48Z</time>
      </trkpt>
      <trkpt lat="43.29946" lon="5.6909">
        <ele>616</ele>
        <time>2016-06-01T11:45:03Z</time>
      </trkpt>
      <trkpt lat="43.29946" lon="5.69088">
        <ele>616</ele>
        <time>2016-06-01T11:45:04Z</time>
      </trkpt>
      <trkpt lat="43.29937" lon="5.69044">
        <ele>618.2</ele>
        <time>2016-06-01T11:45:31Z</time>
      </trkpt>
      <trkpt lat="43.29931" lon="5.69022">
        <ele>618.2</ele>
        <time>2016-06-01T11:45:45Z</time>
      </trkpt>
      <trkpt lat="43.29927" lon="5.68999">
        <ele>618.7</ele>
        <time>2016-06-01T11:45:59Z</time>
      </trkpt>
      <trkpt lat="43.29921" lon="5.68977">
        <ele>618.5</ele>
        <time>2016-06-01T11:46:14Z</time>
      </trkpt>
      <trkpt lat="43.2992" lon="5.68976">
        <ele>618.4</ele>
        <time>2016-06-01T11:46:15Z</time>
      </trkpt>
      <trkpt lat="43.29893" lon="5.68947">
        <ele>621.4</ele>
        <time>2016-06-01T11:46:40Z</time>
      </trkpt>
      <trkpt lat="43.29883" lon="5.6893">
        <ele>617.4</ele>
        <time>2016-06-01T11:46:54Z</time>
      </trkpt>
      <trkpt lat="43.29872" lon="5.68911">
        <ele>616.5</ele>
        <time>2016-06-01T11:47:08Z</time>
      </trkpt>
      <trkpt lat="43.29864" lon="5.68889">
        <ele>613.7</ele>
        <time>2016-06-01T11:47:22Z</time>
      </trkpt>
      <trkpt lat="43.29864" lon="5.68888">
        <ele>613.9</ele>
        <time>2016-06-01T11:47:23Z</time>
      </trkpt>
      <trkpt lat="43.29854" lon="5.68844">
        <ele>606.4</ele>
        <time>2016-06-01T11:47:52Z</time>
      </trkpt>
      <trkpt lat="43.29853" lon="5.68822">
        <ele>605.7</ele>
        <time>2016-06-01T11:48:05Z</time>
      </trkpt>
      <trkpt lat="43.29852" lon="5.68799">
        <ele>611</ele>
        <time>2016-06-01T11:48:17Z</time>
      </trkpt>
      <trkpt lat="43.29855" lon="5.68775">
        <ele>611.7</ele>
        <time>2016-06-01T11:48:30Z</time>
      </trkpt>
      <trkpt lat="43.29855" lon="5.68773">
        <ele>611.7</ele>
        <time>2016-06-01T11:48:31Z</time>
      </trkpt>
      <trkpt lat="43.29853" lon="5.68727">
        <ele>611.5</ele>
        <time>2016-06-01T11:48:59Z</time>
      </trkpt>
      <trkpt lat="43.29853" lon="5.68703">
        <ele>608.7</ele>
        <time>2016-06-01T11:49:14Z</time>
      </trkpt>
      <trkpt lat="43.2985" lon="5.68679">
        <ele>607.2</ele>
        <time>2016-06-01T11:49:28Z</time>
      </trkpt>
      <trkpt lat="43.29848" lon="5.68655">
        <ele>607.7</ele>
        <time>2016-06-01T11:49:42Z</time>
      </trkpt>
      <trkpt lat="43.29848" lon="5.68654">
        <ele>607.4</ele>
        <time>2016-06-01T11:49:43Z</time>
      </trkpt>
      <trkpt lat="43.29855" lon="5.68608">
        <ele>608.5</ele>
        <time>2016-06-01T11:50:09Z</time>
      </trkpt>
      <trkpt lat="43.29848" lon="5.68587">
        <ele>606.7</ele>
        <time>2016-06-01T11:50:24Z</time>
      </trkpt>
      <trkpt lat="43.29836" lon="5.68569">
        <ele>604.5</ele>
        <time>2016-06-01T11:50:38Z</time>
      </trkpt>
      <trkpt lat="43.29827" lon="5.68549">
        <ele>602.5</ele>
        <time>2016-06-01T11:50:52Z</time>
      </trkpt>
      <trkpt lat="43.29827" lon="5.68547">
        <ele>602.4</ele>
        <time>2016-06-01T11:50:53Z</time>
      </trkpt>
      <trkpt lat="43.29817" lon="5.68504">
        <ele>595.7</ele>
        <time>2016-06-01T11:51:24Z</time>
      </trkpt>
      <trkpt lat="43.29818" lon="5.6848">
        <ele>597</ele>
        <time>2016-06-01T11:51:37Z</time>
      </trkpt>
      <trkpt lat="43.29824" lon="5.68457">
        <ele>601.2</ele>
        <time>2016-06-01T11:51:50Z</time>
      </trkpt>
      <trkpt lat="43.29826" lon="5.68433">
        <ele>596.2</ele>
        <time>2016-06-01T11:52:06Z</time>
      </trkpt>
      <trkpt lat="43.29825" lon="5.68431">
        <ele>596</ele>
        <time>2016-06-01T11:52:07Z</time>
      </trkpt>
      <trkpt lat="43.29796" lon="5.6841">
        <ele>592</ele>
        <time>2016-06-01T11:52:33Z</time>
      </trkpt>
      <trkpt lat="43.29783" lon="5.68393">
        <ele>594.7</ele>
        <time>2016-06-01T11:52:47Z</time>
      </trkpt>
      <trkpt lat="43.29778" lon="5.6837">
        <ele>591.4</ele>
        <time>2016-06-01T11:53:04Z</time>
      </trkpt>
      <trkpt lat="43.29778" lon="5.68346">
        <ele>589.5</ele>
        <time>2016-06-01T11:53:18Z</time>
      </trkpt>
      <trkpt lat="43.29779" lon="5.68345">
        <ele>589.5</ele>
        <time>2016-06-01T11:53:19Z</time>
      </trkpt>
      <trkpt lat="43.2976" lon="5.68311">
        <ele>587</ele>
        <time>2016-06-01T11:53:47Z</time>
      </trkpt>
      <trkpt lat="43.29747" lon="5.68294">
        <ele>585</ele>
        <time>2016-06-01T11:54:03Z</time>
      </trkpt>
      <trkpt lat="43.29743" lon="5.68272">
        <ele>589.2</ele>
        <time>2016-06-01T11:54:16Z</time>
      </trkpt>
      <trkpt lat="43.29737" lon="5.68249">
        <ele>588.2</ele>
        <time>2016-06-01T11:54:32Z</time>
      </trkpt>
      <trkpt lat="43.29736" lon="5.68248">
        <ele>588</ele>
        <time>2016-06-01T11:54:33Z</time>
      </trkpt>
      <trkpt lat="43.29712" lon="5.68251">
        <ele>592.2</ele>
        <time>2016-06-01T11:57:00Z</time>
      </trkpt>
      <trkpt lat="43.29711" lon="5.68252">
        <ele>592.2</ele>
        <time>2016-06-01T11:57:01Z</time>
      </trkpt>
      <trkpt lat="43.29696" lon="5.68294">
        <ele>589.5</ele>
        <time>2016-06-01T11:57:38Z</time>
      </trkpt>
      <trkpt lat="43.29689" lon="5.68316">
        <ele>592.4</ele>
        <time>2016-06-01T11:57:55Z</time>
      </trkpt>
      <trkpt lat="43.2968" lon="5.68336">
        <ele>592</ele>
        <time>2016-06-01T11:58:11Z</time>
      </trkpt>
      <trkpt lat="43.29679" lon="5.68337">
        <ele>592.2</ele>
        <time>2016-06-01T11:58:12Z</time>
      </trkpt>
      <trkpt lat="43.29657" lon="5.68371">
        <ele>597</ele>
        <time>2016-06-01T11:58:46Z</time>
      </trkpt>
      <trkpt lat="43.29643" lon="5.68385">
        <ele>585.9</ele>
        <time>2016-06-01T11:59:02Z</time>
      </trkpt>
      <trkpt lat="43.29628" lon="5.68399">
        <ele>585.2</ele>
        <time>2016-06-01T11:59:19Z</time>
      </trkpt>
      <trkpt lat="43.29628" lon="5.684">
        <ele>585</ele>
        <time>2016-06-01T11:59:20Z</time>
      </trkpt>
      <trkpt lat="43.29603" lon="5.6843">
        <ele>579.4</ele>
        <time>2016-06-01T11:59:47Z</time>
      </trkpt>
      <trkpt lat="43.29588" lon="5.68441">
        <ele>581.7</ele>
        <time>2016-06-01T12:00:03Z</time>
      </trkpt>
      <trkpt lat="43.29571" lon="5.68448">
        <ele>579.5</ele>
        <time>2016-06-01T12:00:18Z</time>
      </trkpt>
      <trkpt lat="43.29554" lon="5.68452">
        <ele>575.2</ele>
        <time>2016-06-01T12:00:32Z</time>
      </trkpt>
      <trkpt lat="43.29553" lon="5.68452">
        <ele>575.4</ele>
        <time>2016-06-01T12:00:33Z</time>
      </trkpt>
      <trkpt lat="43.29523" lon="5.6847">
        <ele>576.7</ele>
        <time>2016-06-01T12:00:59Z</time>
      </trkpt>
      <trkpt lat="43.29507" lon="5.6848">
        <ele>577.2</ele>
        <time>2016-06-01T12:01:14Z</time>
      </trkpt>
      <trkpt lat="43.29491" lon="5.68489">
        <ele>573.2</ele>
        <time>2016-06-01T12:01:27Z</time>
      </trkpt>
      <trkpt lat="43.29475" lon="5.68494">
        <ele>569.7</ele>
        <time>2016-06-01T12:01:41Z</time>
      </trkpt>
      <trkpt lat="43.29474" lon="5.68494">
        <ele>569.4</ele>
        <time>2016-06-01T12:01:42Z</time>
      </trkpt>
      <trkpt lat="43.29445" lon="5.68472">
        <ele>558</ele>
        <time>2016-06-01T12:02:11Z</time>
      </trkpt>
      <trkpt lat="43.29431" lon="5.68457">
        <ele>556</ele>
        <time>2016-06-01T12:02:25Z</time>
      </trkpt>
      <trkpt lat="43.29416" lon="5.68445">
        <ele>551.7</ele>
        <time>2016-06-01T12:02:40Z</time>
      </trkpt>
      <trkpt lat="43.294" lon="5.68437">
        <ele>551.5</ele>
        <time>2016-06-01T12:02:53Z</time>
      </trkpt>
      <trkpt lat="43.29399" lon="5.68436">
        <ele>551.5</ele>
        <time>2016-06-01T12:02:54Z</time>
      </trkpt>
      <trkpt lat="43.29368" lon="5.6842">
        <ele>551.5</ele>
        <time>2016-06-01T12:03:20Z</time>
      </trkpt>
      <trkpt lat="43.29351" lon="5.68416">
        <ele>550.5</ele>
        <time>2016-06-01T12:03:34Z</time>
      </trkpt>
      <trkpt lat="43.29333" lon="5.68411">
        <ele>549.5</ele>
        <time>2016-06-01T12:03:49Z</time>
      </trkpt>
      <trkpt lat="43.29318" lon="5.684">
        <ele>544.2</ele>
        <time>2016-06-01T12:04:06Z</time>
      </trkpt>
      <trkpt lat="43.29317" lon="5.68399">
        <ele>544.2</ele>
        <time>2016-06-01T12:04:07Z</time>
      </trkpt>
      <trkpt lat="43.29299" lon="5.68359">
        <ele>535.7</ele>
        <time>2016-06-01T12:04:37Z</time>
      </trkpt>
      <trkpt lat="43.29292" lon="5.68337">
        <ele>534.2</ele>
        <time>2016-06-01T12:04:51Z</time>
      </trkpt>
      <trkpt lat="43.2928" lon="5.68321">
        <ele>531.7</ele>
        <time>2016-06-01T12:05:04Z</time>
      </trkpt>
      <trkpt lat="43.29266" lon="5.68307">
        <ele>529.5</ele>
        <time>2016-06-01T12:05:18Z</time>
      </trkpt>
      <trkpt lat="43.29265" lon="5.68306">
        <ele>529.2</ele>
        <time>2016-06-01T12:05:19Z</time>
      </trkpt>
      <trkpt lat="43.29248" lon="5.68267">
        <ele>523.9</ele>
        <time>2016-06-01T12:05:45Z</time>
      </trkpt>
      <trkpt lat="43.29231" lon="5.68259">
        <ele>532.5</ele>
        <time>2016-06-01T12:05:57Z</time>
      </trkpt>
      <trkpt lat="43.29216" lon="5.68272">
        <ele>537.7</ele>
        <time>2016-06-01T12:06:11Z</time>
      </trkpt>
      <trkpt lat="43.29204" lon="5.68288">
        <ele>537.7</ele>
        <time>2016-06-01T12:06:24Z</time>
      </trkpt>
      <trkpt lat="43.29203" lon="5.68289">
        <ele>537.5</ele>
        <time>2016-06-01T12:06:25Z</time>
      </trkpt>
      <trkpt lat="43.29174" lon="5.68305">
        <ele>540.5</ele>
        <time>2016-06-01T12:06:53Z</time>
      </trkpt>
      <trkpt lat="43.2916" lon="5.68291">
        <ele>533.5</ele>
        <time>2016-06-01T12:07:08Z</time>
      </trkpt>
      <trkpt lat="43.2915" lon="5.68272">
        <ele>532</ele>
        <time>2016-06-01T12:07:22Z</time>
      </trkpt>
      <trkpt lat="43.29141" lon="5.68252">
        <ele>529.2</ele>
        <time>2016-06-01T12:07:36Z</time>
      </trkpt>
      <trkpt lat="43.29141" lon="5.6825">
        <ele>528.9</ele>
        <time>2016-06-01T12:07:37Z</time>
      </trkpt>
      <trkpt lat="43.29132" lon="5.6823">
        <ele>530.2</ele>
        <time>2016-06-01T12:10:40Z</time>
      </trkpt>
      <trkpt lat="43.29114" lon="5.68191">
        <ele>529.5</ele>
        <time>2016-06-01T12:11:12Z</time>
      </trkpt>
      <trkpt lat="43.29107" lon="5.68169">
        <ele>527.2</ele>
        <time>2016-06-01T12:11:27Z</time>
      </trkpt>
      <trkpt lat="43.29103" lon="5.68146">
        <ele>524.4</ele>
        <time>2016-06-01T12:11:41Z</time>
      </trkpt>
      <trkpt lat="43.29102" lon="5.68145">
        <ele>524</ele>
        <time>2016-06-01T12:11:42Z</time>
      </trkpt>
      <trkpt lat="43.29097" lon="5.68098">
        <ele>520</ele>
        <time>2016-06-01T12:12:12Z</time>
      </trkpt>
      <trkpt lat="43.29087" lon="5.68079">
        <ele>520.4</ele>
        <time>2016-06-01T12:12:27Z</time>
      </trkpt>
      <trkpt lat="43.2908" lon="5.68058">
        <ele>520.4</ele>
        <time>2016-06-01T12:12:40Z</time>
      </trkpt>
      <trkpt lat="43.29081" lon="5.68033">
        <ele>524.4</ele>
        <time>2016-06-01T12:12:53Z</time>
      </trkpt>
      <trkpt lat="43.29081" lon="5.68031">
        <ele>524.7</ele>
        <time>2016-06-01T12:12:54Z</time>
      </trkpt>
      <trkpt lat="43.29079" lon="5.67986">
        <ele>518.5</ele>
        <time>2016-06-01T12:13:23Z</time>
      </trkpt>
      <trkpt lat="43.29073" lon="5.67963">
        <ele>518.9</ele>
        <time>2016-06-01T12:13:38Z</time>
      </trkpt>
      <trkpt lat="43.29063" lon="5.67944">
        <ele>519.7</ele>
        <time>2016-06-01T12:13:52Z</time>
      </trkpt>
      <trkpt lat="43.29052" lon="5.67926">
        <ele>519.5</ele>
        <time>2016-06-01T12:14:05Z</time>
      </trkpt>
      <trkpt lat="43.29051" lon="5.67924">
        <ele>519.4</ele>
        <time>2016-06-01T12:14:06Z</time>
      </trkpt>
      <trkpt lat="43.29032" lon="5.67887">
        <ele>523.2</ele>
        <time>2016-06-01T12:14:33Z</time>
      </trkpt>
      <trkpt lat="43.29022" lon="5.67867">
        <ele>521.2</ele>
        <time>2016-06-01T12:14:48Z</time>
      </trkpt>
      <trkpt lat="43.29018" lon="5.67844">
        <ele>519.7</ele>
        <time>2016-06-01T12:15:02Z</time>
      </trkpt>
      <trkpt lat="43.29023" lon="5.67821">
        <ele>514.7</ele>
        <time>2016-06-01T12:15:17Z</time>
      </trkpt>
      <trkpt lat="43.29023" lon="5.67819">
        <ele>514.5</ele>
        <time>2016-06-01T12:15:18Z</time>
      </trkpt>
      <trkpt lat="43.29012" lon="5.67776">
        <ele>514.5</ele>
        <time>2016-06-01T12:15:45Z</time>
      </trkpt>
      <trkpt lat="43.29006" lon="5.67753">
        <ele>515</ele>
        <time>2016-06-01T12:15:59Z</time>
      </trkpt>
      <trkpt lat="43.28999" lon="5.67732">
        <ele>515</ele>
        <time>2016-06-01T12:16:13Z</time>
      </trkpt>
      <trkpt lat="43.28993" lon="5.67709">
        <ele>514.4</ele>
        <time>2016-06-01T12:16:27Z</time>
      </trkpt>
      <trkpt lat="43.28993" lon="5.67707">
        <ele>514.5</ele>
        <time>2016-06-01T12:16:28Z</time>
      </trkpt>
      <trkpt lat="43.28986" lon="5.67662">
        <ele>516</ele>
        <time>2016-06-01T12:17:01Z</time>
      </trkpt>
      <trkpt lat="43.28972" lon="5.67647">
        <ele>518.4</ele>
        <time>2016-06-01T12:17:19Z</time>
      </trkpt>
      <trkpt lat="43.28958" lon="5.67632">
        <ele>521.7</ele>
        <time>2016-06-01T12:17:40Z</time>
      </trkpt>
      <trkpt lat="43.28958" lon="5.67631">
        <ele>522.9</ele>
        <time>2016-06-01T12:17:41Z</time>
      </trkpt>
      <trkpt lat="43.28964" lon="5.67585">
        <ele>528.2</ele>
        <time>2016-06-01T12:18:23Z</time>
      </trkpt>
      <trkpt lat="43.28973" lon="5.67563">
        <ele>533.5</ele>
        <time>2016-06-01T12:18:49Z</time>
      </trkpt>
      <trkpt lat="43.28973" lon="5.67562">
        <ele>534</ele>
        <time>2016-06-01T12:18:50Z</time>
      </trkpt>
      <trkpt lat="43.28949" lon="5.67528">
        <ele>540.7</ele>
        <time>2016-06-01T12:19:34Z</time>
      </trkpt>
      <trkpt lat="43.28948" lon="5.67504">
        <ele>543.4</ele>
        <time>2016-06-01T12:19:54Z</time>
      </trkpt>
      <trkpt lat="43.28948" lon="5.67503">
        <ele>543.5</ele>
        <time>2016-06-01T12:19:55Z</time>
      </trkpt>
      <trkpt lat="43.28928" lon="5.67472">
        <ele>544.7</ele>
        <time>2016-06-01T12:20:38Z</time>
      </trkpt>
      <trkpt lat="43.2891" lon="5.67474">
        <ele>543</ele>
        <time>2016-06-01T12:20:58Z</time>
      </trkpt>
      <trkpt lat="43.28909" lon="5.67474">
        <ele>543</ele>
        <time>2016-06-01T12:20:59Z</time>
      </trkpt>
      <trkpt lat="43.28892" lon="5.67479">
        <ele>544.9</ele>
        <time>2016-06-01T12:23:06Z</time>
      </trkpt>
      <trkpt lat="43.28859" lon="5.67465">
        <ele>541</ele>
        <time>2016-06-01T12:23:45Z</time>
      </trkpt>
      <trkpt lat="43.28842" lon="5.67471">
        <ele>536.7</ele>
        <time>2016-06-01T12:24:05Z</time>
      </trkpt>
      <trkpt lat="43.28827" lon="5.67482">
        <ele>533.9</ele>
        <time>2016-06-01T12:24:29Z</time>
      </trkpt>
      <trkpt lat="43.28826" lon="5.67482">
        <ele>533.5</ele>
        <time>2016-06-01T12:24:30Z</time>
      </trkpt>
      <trkpt lat="43.28791" lon="5.67478">
        <ele>523</ele>
        <time>2016-06-01T12:25:18Z</time>
      </trkpt>
      <trkpt lat="43.28773" lon="5.67479">
        <ele>521</ele>
        <time>2016-06-01T12:25:47Z</time>
      </trkpt>
      <trkpt lat="43.28772" lon="5.67479">
        <ele>520.7</ele>
        <time>2016-06-01T12:25:48Z</time>
      </trkpt>
      <trkpt lat="43.28739" lon="5.67481">
        <ele>511</ele>
        <time>2016-06-01T12:26:23Z</time>
      </trkpt>
      <trkpt lat="43.28722" lon="5.67481">
        <ele>507.8</ele>
        <time>2016-06-01T12:26:41Z</time>
      </trkpt>
      <trkpt lat="43.28705" lon="5.67475">
        <ele>505.6</ele>
        <time>2016-06-01T12:26:56Z</time>
      </trkpt>
      <trkpt lat="43.28704" lon="5.67474">
        <ele>505.5</ele>
        <time>2016-06-01T12:26:57Z</time>
      </trkpt>
      <trkpt lat="43.28673" lon="5.67456">
        <ele>501.2</ele>
        <time>2016-06-01T12:27:28Z</time>
      </trkpt>
      <trkpt lat="43.28659" lon="5.67441">
        <ele>502.8</ele>
        <time>2016-06-01T12:28:05Z</time>
      </trkpt>
      <trkpt lat="43.28659" lon="5.6744">
        <ele>502.7</ele>
        <time>2016-06-01T12:28:06Z</time>
      </trkpt>
      <trkpt lat="43.28636" lon="5.67405">
        <ele>502</ele>
        <time>2016-06-01T12:28:40Z</time>
      </trkpt>
      <trkpt lat="43.28627" lon="5.67384">
        <ele>499.7</ele>
        <time>2016-06-01T12:28:58Z</time>
      </trkpt>
      <trkpt lat="43.28625" lon="5.67361">
        <ele>495.1</ele>
        <time>2016-06-01T12:30:42Z</time>
      </trkpt>
      <trkpt lat="43.28625" lon="5.67359">
        <ele>494.7</ele>
        <time>2016-06-01T12:30:43Z</time>
      </trkpt>
      <trkpt lat="43.28617" lon="5.67314">
        <ele>487</ele>
        <time>2016-06-01T12:31:15Z</time>
      </trkpt>
      <trkpt lat="43.28604" lon="5.67298">
        <ele>484.2</ele>
        <time>2016-06-01T12:31:31Z</time>
      </trkpt>
      <trkpt lat="43.28588" lon="5.67291">
        <ele>479.2</ele>
        <time>2016-06-01T12:31:48Z</time>
      </trkpt>
      <trkpt lat="43.28587" lon="5.6729">
        <ele>479.6</ele>
        <time>2016-06-01T12:31:49Z</time>
      </trkpt>
      <trkpt lat="43.28566" lon="5.67259">
        <ele>472.2</ele>
        <time>2016-06-01T12:32:25Z</time>
      </trkpt>
      <trkpt lat="43.28568" lon="5.67236">
        <ele>468.7</ele>
        <time>2016-06-01T12:32:41Z</time>
      </trkpt>
      <trkpt lat="43.28572" lon="5.67213">
        <ele>466</ele>
        <time>2016-06-01T12:32:56Z</time>
      </trkpt>
      <trkpt lat="43.28572" lon="5.67211">
        <ele>465.6</ele>
        <time>2016-06-01T12:32:57Z</time>
      </trkpt>
      <trkpt lat="43.28569" lon="5.67166">
        <ele>472</ele>
        <time>2016-06-01T12:33:28Z</time>
      </trkpt>
      <trkpt lat="43.28562" lon="5.67144">
        <ele>473.8</ele>
        <time>2016-06-01T12:33:44Z</time>
      </trkpt>
      <trkpt lat="43.28556" lon="5.67121">
        <ele>474.2</ele>
        <time>2016-06-01T12:34:00Z</time>
      </trkpt>
      <trkpt lat="43.28556" lon="5.67119">
        <ele>474.7</ele>
        <time>2016-06-01T12:34:01Z</time>
      </trkpt>
      <trkpt lat="43.28537" lon="5.67082">
        <ele>478.1</ele>
        <time>2016-06-01T12:34:34Z</time>
      </trkpt>
      <trkpt lat="43.28526" lon="5.67062">
        <ele>476.5</ele>
        <time>2016-06-01T12:34:51Z</time>
      </trkpt>
      <trkpt lat="43.28521" lon="5.67039">
        <ele>476.3</ele>
        <time>2016-06-01T12:35:13Z</time>
      </trkpt>
      <trkpt lat="43.28521" lon="5.67038">
        <ele>476.2</ele>
        <time>2016-06-01T12:35:14Z</time>
      </trkpt>
      <trkpt lat="43.2849" lon="5.67025">
        <ele>466.2</ele>
        <time>2016-06-01T12:36:01Z</time>
      </trkpt>
      <trkpt lat="43.28481" lon="5.67045">
        <ele>461.8</ele>
        <time>2016-06-01T12:36:20Z</time>
      </trkpt>
      <trkpt lat="43.2848" lon="5.67046">
        <ele>461.7</ele>
        <time>2016-06-01T12:36:21Z</time>
      </trkpt>
      <trkpt lat="43.28456" lon="5.67077">
        <ele>455.3</ele>
        <time>2016-06-01T12:36:56Z</time>
      </trkpt>
      <trkpt lat="43.28439" lon="5.67078">
        <ele>451</ele>
        <time>2016-06-01T12:37:10Z</time>
      </trkpt>
      <trkpt lat="43.28421" lon="5.67075">
        <ele>451.7</ele>
        <time>2016-06-01T12:37:26Z</time>
      </trkpt>
      <trkpt lat="43.2842" lon="5.67075">
        <ele>451.7</ele>
        <time>2016-06-01T12:37:27Z</time>
      </trkpt>
      <trkpt lat="43.28387" lon="5.67081">
        <ele>454.6</ele>
        <time>2016-06-01T12:38:03Z</time>
      </trkpt>
      <trkpt lat="43.28369" lon="5.67077">
        <ele>455</ele>
        <time>2016-06-01T12:38:22Z</time>
      </trkpt>
      <trkpt lat="43.28355" lon="5.67065">
        <ele>459.3</ele>
        <time>2016-06-01T12:38:41Z</time>
      </trkpt>
      <trkpt lat="43.28354" lon="5.67064">
        <ele>459.7</ele>
        <time>2016-06-01T12:38:42Z</time>
      </trkpt>
      <trkpt lat="43.28336" lon="5.67024">
        <ele>461.1</ele>
        <time>2016-06-01T12:39:11Z</time>
      </trkpt>
      <trkpt lat="43.28327" lon="5.67002">
        <ele>462.1</ele>
        <time>2016-06-01T12:39:26Z</time>
      </trkpt>
      <trkpt lat="43.28319" lon="5.66981">
        <ele>459.6</ele>
        <time>2016-06-01T12:39:42Z</time>
      </trkpt>
      <trkpt lat="43.28319" lon="5.6698">
        <ele>459.7</ele>
        <time>2016-06-01T12:39:43Z</time>
      </trkpt>
      <trkpt lat="43.28304" lon="5.66939">
        <ele>455</ele>
        <time>2016-06-01T12:40:19Z</time>
      </trkpt>
      <trkpt lat="43.28292" lon="5.66921">
        <ele>455.1</ele>
        <time>2016-06-01T12:40:35Z</time>
      </trkpt>
      <trkpt lat="43.28295" lon="5.66897">
        <ele>453.7</ele>
        <time>2016-06-01T12:40:59Z</time>
      </trkpt>
      <trkpt lat="43.28295" lon="5.66896">
        <ele>453.7</ele>
        <time>2016-06-01T12:41:00Z</time>
      </trkpt>
      <trkpt lat="43.2831" lon="5.66885">
        <ele>456.7</ele>
        <time>2016-06-01T12:43:04Z</time>
      </trkpt>
      <trkpt lat="43.28322" lon="5.66843">
        <ele>451.5</ele>
        <time>2016-06-01T12:43:37Z</time>
      </trkpt>
      <trkpt lat="43.28321" lon="5.6682">
        <ele>454.2</ele>
        <time>2016-06-01T12:43:51Z</time>
      </trkpt>
      <trkpt lat="43.28315" lon="5.66797">
        <ele>456.8</ele>
        <time>2016-06-01T12:44:08Z</time>
      </trkpt>
      <trkpt lat="43.28314" lon="5.66796">
        <ele>456.8</ele>
        <time>2016-06-01T12:44:09Z</time>
      </trkpt>
      <trkpt lat="43.28299" lon="5.66753">
        <ele>455.5</ele>
        <time>2016-06-01T12:44:43Z</time>
      </trkpt>
      <trkpt lat="43.28292" lon="5.66731">
        <ele>458.1</ele>
        <time>2016-06-01T12:45:02Z</time>
      </trkpt>
      <trkpt lat="43.28309" lon="5.66725">
        <ele>460.2</ele>
        <time>2016-06-01T12:45:23Z</time>
      </trkpt>
      <trkpt lat="43.2831" lon="5.66726">
        <ele>460</ele>
        <time>2016-06-01T12:45:24Z</time>
      </trkpt>
      <trkpt lat="43.28344" lon="5.66733">
        <ele>461.7</ele>
        <time>2016-06-01T12:45:54Z</time>
      </trkpt>
      <trkpt lat="43.28361" lon="5.66731">
        <ele>461.1</ele>
        <time>2016-06-01T12:46:10Z</time>
      </trkpt>
      <trkpt lat="43.28379" lon="5.66725">
        <ele>461.6</ele>
        <time>2016-06-01T12:46:27Z</time>
      </trkpt>
      <trkpt lat="43.28379" lon="5.66725">
        <ele>461.7</ele>
        <time>2016-06-01T12:46:28Z</time>
      </trkpt>
      <trkpt lat="43.28411" lon="5.66707">
        <ele>465.2</ele>
        <time>2016-06-01T12:46:58Z</time>
      </trkpt>
      <trkpt lat="43.28428" lon="5.66707">
        <ele>466.2</ele>
        <time>2016-06-01T12:47:13Z</time>
      </trkpt>
      <trkpt lat="43.28444" lon="5.66716">
        <ele>464.7</ele>
        <time>2016-06-01T12:47:29Z</time>
      </trkpt>
      <trkpt lat="43.28445" lon="5.66716">
        <ele>464.7</ele>
        <time>2016-06-01T12:47:30Z</time>
      </trkpt>
      <trkpt lat="43.28473" lon="5.66695">
        <ele>468.6</ele>
        <time>2016-06-01T12:48:02Z</time>
      </trkpt>
      <trkpt lat="43.28484" lon="5.66675">
        <ele>467.7</ele>
        <time>2016-06-01T12:48:18Z</time>
      </trkpt>
      <trkpt lat="43.28497" lon="5.66658">
        <ele>469.6</ele>
        <time>2016-06-01T12:48:34Z</time>
      </trkpt>
      <trkpt lat="43.28497" lon="5.66657">
        <ele>469.3</ele>
        <time>2016-06-01T12:48:35Z</time>
      </trkpt>
      <trkpt lat="43.28478" lon="5.66627">
        <ele>469.1</ele>
        <time>2016-06-01T12:49:11Z</time>
      </trkpt>
      <trkpt lat="43.28461" lon="5.66625">
        <ele>469</ele>
        <time>2016-06-01T12:49:26Z</time>
      </trkpt>
      <trkpt lat="43.28444" lon="5.66619">
        <ele>468.8</ele>
        <time>2016-06-01T12:49:40Z</time>
      </trkpt>
      <trkpt lat="43.28443" lon="5.66618">
        <ele>469.1</ele>
        <time>2016-06-01T12:49:41Z</time>
      </trkpt>
      <trkpt lat="43.28414" lon="5.66598">
        <ele>470.7</ele>
        <time>2016-06-01T12:50:10Z</time>
      </trkpt>
      <trkpt lat="43.28399" lon="5.66586">
        <ele>468.1</ele>
        <time>2016-06-01T12:50:24Z</time>
      </trkpt>
      <trkpt lat="43.28386" lon="5.6657">
        <ele>468.3</ele>
        <time>2016-06-01T12:50:39Z</time>
      </trkpt>
      <trkpt lat="43.28371" lon="5.66556">
        <ele>467.6</ele>
        <time>2016-06-01T12:50:54Z</time>
      </trkpt>
      <trkpt lat="43.28371" lon="5.66554">
        <ele>468.5</ele>
        <time>2016-06-01T12:50:55Z</time>
      </trkpt>
      <trkpt lat="43.28348" lon="5.6652">
        <ele>467.2</ele>
        <time>2016-06-01T12:51:25Z</time>
      </trkpt>
      <trkpt lat="43.28338" lon="5.665">
        <ele>467</ele>
        <time>2016-06-01T12:51:40Z</time>
      </trkpt>
      <trkpt lat="43.28331" lon="5.66477">
        <ele>469.2</ele>
        <time>2016-06-01T12:51:54Z</time>
      </trkpt>
      <trkpt lat="43.2832" lon="5.66458">
        <ele>470.2</ele>
        <time>2016-06-01T12:52:10Z</time>
      </trkpt>
      <trkpt lat="43.28319" lon="5.66457">
        <ele>470.1</ele>
        <time>2016-06-01T12:52:11Z</time>
      </trkpt>
      <trkpt lat="43.28293" lon="5.66426">
        <ele>467.1</ele>
        <time>2016-06-01T12:52:41Z</time>
      </trkpt>
      <trkpt lat="43.28298" lon="5.66404">
        <ele>470.3</ele>
        <time>2016-06-01T12:52:56Z</time>
      </trkpt>
      <trkpt lat="43.28312" lon="5.66391">
        <ele>473.2</ele>
        <time>2016-06-01T12:53:10Z</time>
      </trkpt>
      <trkpt lat="43.2833" lon="5.6639">
        <ele>475.2</ele>
        <time>2016-06-01T12:53:24Z</time>
      </trkpt>
      <trkpt lat="43.28331" lon="5.6639">
        <ele>475.5</ele>
        <time>2016-06-01T12:53:25Z</time>
      </trkpt>
      <trkpt lat="43.28359" lon="5.66372">
        <ele>479.2</ele>
        <time>2016-06-01T12:54:16Z</time>
      </trkpt>
      <trkpt lat="43.2836" lon="5.66348">
        <ele>479.3</ele>
        <time>2016-06-01T12:54:37Z</time>
      </trkpt>
      <trkpt lat="43.2836" lon="5.66347">
        <ele>479.1</ele>
        <time>2016-06-01T12:54:38Z</time>
      </trkpt>
      <trkpt lat="43.2836" lon="5.663">
        <ele>479.2</ele>
        <time>2016-06-01T12:55:12Z</time>
      </trkpt>
      <trkpt lat="43.28367" lon="5.66278">
        <ele>479.1</ele>
        <time>2016-06-01T12:55:29Z</time>
      </trkpt>
      <trkpt lat="43.28378" lon="5.6626">
        <ele>482.2</ele>
        <time>2016-06-01T12:55:53Z</time>
      </trkpt>
      <trkpt lat="43.28379" lon="5.66259">
        <ele>482.3</ele>
        <time>2016-06-01T12:55:54Z</time>
      </trkpt>
      <trkpt lat="43.28412" lon="5.66253">
        <ele>485.1</ele>
        <time>2016-06-01T12:56:23Z</time>
      </trkpt>
      <trkpt lat="43.28429" lon="5.66256">
        <ele>486.5</ele>
        <time>2016-06-01T12:56:37Z</time>
      </trkpt>
      <trkpt lat="43.28446" lon="5.66261">
        <ele>483.2</ele>
        <time>2016-06-01T12:56:53Z</time>
      </trkpt>
      <trkpt lat="43.28462" lon="5.66269">
        <ele>486.2</ele>
        <time>2016-06-01T12:57:05Z</time>
      </trkpt>
      <trkpt lat="43.28463" lon="5.6627">
        <ele>486.5</ele>
        <time>2016-06-01T12:57:06Z</time>
      </trkpt>
      <trkpt lat="43.28467" lon="5.6626">
        <ele>491.2</ele>
        <time>2016-06-01T12:58:28Z</time>
      </trkpt>
      <trkpt lat="43.28466" lon="5.6626">
        <ele>491.2</ele>
        <time>2016-06-01T12:58:29Z</time>
      </trkpt>
      <trkpt lat="43.28439" lon="5.66231">
        <ele>494.1</ele>
        <time>2016-06-01T12:59:03Z</time>
      </trkpt>
      <trkpt lat="43.28423" lon="5.66224">
        <ele>496.3</ele>
        <time>2016-06-01T12:59:19Z</time>
      </trkpt>
      <trkpt lat="43.28407" lon="5.66212">
        <ele>498.1</ele>
        <time>2016-06-01T12:59:37Z</time>
      </trkpt>
      <trkpt lat="43.28406" lon="5.66212">
        <ele>498.2</ele>
        <time>2016-06-01T12:59:38Z</time>
      </trkpt>
      <trkpt lat="43.28374" lon="5.66195">
        <ele>500.3</ele>
        <time>2016-06-01T13:00:11Z</time>
      </trkpt>
      <trkpt lat="43.28358" lon="5.66184">
        <ele>500.5</ele>
        <time>2016-06-01T13:00:28Z</time>
      </trkpt>
      <trkpt lat="43.28343" lon="5.66174">
        <ele>501.3</ele>
        <time>2016-06-01T13:00:44Z</time>
      </trkpt>
      <trkpt lat="43.28342" lon="5.66173">
        <ele>501.5</ele>
        <time>2016-06-01T13:00:45Z</time>
      </trkpt>
      <trkpt lat="43.28312" lon="5.66155">
        <ele>505.8</ele>
        <time>2016-06-01T13:01:19Z</time>
      </trkpt>
      <trkpt lat="43.28301" lon="5.66135">
        <ele>508.1</ele>
        <time>2016-06-01T13:01:35Z</time>
      </trkpt>
      <trkpt lat="43.28287" lon="5.66122">
        <ele>508.3</ele>
        <time>2016-06-01T13:01:50Z</time>
      </trkpt>
      <trkpt lat="43.28286" lon="5.66121">
        <ele>508.3</ele>
        <time>2016-06-01T13:01:51Z</time>
      </trkpt>
      <trkpt lat="43.28258" lon="5.66097">
        <ele>506.5</ele>
        <time>2016-06-01T13:02:19Z</time>
      </trkpt>
      <trkpt lat="43.28246" lon="5.66081">
        <ele>507.6</ele>
        <time>2016-06-01T13:02:33Z</time>
      </trkpt>
      <trkpt lat="43.28237" lon="5.66061">
        <ele>505.7</ele>
        <time>2016-06-01T13:02:48Z</time>
      </trkpt>
      <trkpt lat="43.28232" lon="5.66038">
        <ele>503.7</ele>
        <time>2016-06-01T13:03:02Z</time>
      </trkpt>
      <trkpt lat="43.28231" lon="5.66037">
        <ele>503.8</ele>
        <time>2016-06-01T13:03:03Z</time>
      </trkpt>
      <trkpt lat="43.28224" lon="5.65992">
        <ele>499</ele>
        <time>2016-06-01T13:03:34Z</time>
      </trkpt>
      <trkpt lat="43.28224" lon="5.65967">
        <ele>501.5</ele>
        <time>2016-06-01T13:03:48Z</time>
      </trkpt>
      <trkpt lat="43.28216" lon="5.65946">
        <ele>502.6</ele>
        <time>2016-06-01T13:04:03Z</time>
      </trkpt>
      <trkpt lat="43.28215" lon="5.65944">
        <ele>503.5</ele>
        <time>2016-06-01T13:04:04Z</time>
      </trkpt>
      <trkpt lat="43.28186" lon="5.65921">
        <ele>503.6</ele>
        <time>2016-06-01T13:04:34Z</time>
      </trkpt>
      <trkpt lat="43.28174" lon="5.65904">
        <ele>508.6</ele>
        <time>2016-06-01T13:04:47Z</time>
      </trkpt>
      <trkpt lat="43.28161" lon="5.65888">
        <ele>503.2</ele>
        <time>2016-06-01T13:05:03Z</time>
      </trkpt>
      <trkpt lat="43.28152" lon="5.6587">
        <ele>503.5</ele>
        <time>2016-06-01T13:05:16Z</time>
      </trkpt>
      <trkpt lat="43.28151" lon="5.65868">
        <ele>504.1</ele>
        <time>2016-06-01T13:05:17Z</time>
      </trkpt>
      <trkpt lat="43.2813" lon="5.65834">
        <ele>493.6</ele>
        <time>2016-06-01T13:05:46Z</time>
      </trkpt>
      <trkpt lat="43.28124" lon="5.65812">
        <ele>488.3</ele>
        <time>2016-06-01T13:06:02Z</time>
      </trkpt>
      <trkpt lat="43.28126" lon="5.65789">
        <ele>486.1</ele>
        <time>2016-06-01T13:06:17Z</time>
      </trkpt>
      <trkpt lat="43.28126" lon="5.65788">
        <ele>485.7</ele>
        <time>2016-06-01T13:06:18Z</time>
      </trkpt>
      <trkpt lat="43.28135" lon="5.65742">
        <ele>485.7</ele>
        <time>2016-06-01T13:06:45Z</time>
      </trkpt>
      <trkpt lat="43.28145" lon="5.65722">
        <ele>481.1</ele>
        <time>2016-06-01T13:07:01Z</time>
      </trkpt>
      <trkpt lat="43.28153" lon="5.65701">
        <ele>479.7</ele>
        <time>2016-06-01T13:07:16Z</time>
      </trkpt>
      <trkpt lat="43.28162" lon="5.6568">
        <ele>479.2</ele>
        <time>2016-06-01T13:07:31Z</time>
      </trkpt>
      <trkpt lat="43.28162" lon="5.65679">
        <ele>479.3</ele>
        <time>2016-06-01T13:07:32Z</time>
      </trkpt>
      <trkpt lat="43.28182" lon="5.65639">
        <ele>479.8</ele>
        <time>2016-06-01T13:08:02Z</time>
      </trkpt>
      <trkpt lat="43.28188" lon="5.65616">
        <ele>475.7</ele>
        <time>2016-06-01T13:08:18Z</time>
      </trkpt>
      <trkpt lat="43.28192" lon="5.65594">
        <ele>474.7</ele>
        <time>2016-06-01T13:08:32Z</time>
      </trkpt>
      <trkpt lat="43.28192" lon="5.65592">
        <ele>474.7</ele>
        <time>2016-06-01T13:08:33Z</time>
      </trkpt>
      <trkpt lat="43.28206" lon="5.65549">
        <ele>469</ele>
        <time>2016-06-01T13:09:03Z</time>
      </trkpt>
      <trkpt lat="43.28211" lon="5.65527">
        <ele>464.7</ele>
        <time>2016-06-01T13:09:18Z</time>
      </trkpt>
      <trkpt lat="43.28213" lon="5.65504">
        <ele>468</ele>
        <time>2016-06-01T13:09:31Z</time>
      </trkpt>
      <trkpt lat="43.28216" lon="5.6548">
        <ele>471.3</ele>
        <time>2016-06-01T13:09:45Z</time>
      </trkpt>
      <trkpt lat="43.28216" lon="5.65478">
        <ele>471.2</ele>
        <time>2016-06-01T13:09:46Z</time>
      </trkpt>
      <trkpt lat="43.28226" lon="5.65434">
        <ele>461.5</ele>
        <time>2016-06-01T13:10:17Z</time>
      </trkpt>
      <trkpt lat="43.28228" lon="5.65411">
        <ele>461.2</ele>
        <time>2016-06-01T13:10:32Z</time>
      </trkpt>
      <trkpt lat="43.28225" lon="5.65386">
        <ele>461.7</ele>
        <time>2016-06-01T13:10:47Z</time>
      </trkpt>
      <trkpt lat="43.28225" lon="5.65385">
        <ele>461.7</ele>
        <time>2016-06-01T13:10:48Z</time>
      </trkpt>
      <trkpt lat="43.28218" lon="5.6534">
        <ele>458.1</ele>
        <time>2016-06-01T13:11:16Z</time>
      </trkpt>
      <trkpt lat="43.28215" lon="5.65315">
        <ele>462.7</ele>
        <time>2016-06-01T13:11:29Z</time>
      </trkpt>
      <trkpt lat="43.28212" lon="5.65292">
        <ele>456.3</ele>
        <time>2016-06-01T13:11:45Z</time>
      </trkpt>
      <trkpt lat="43.28214" lon="5.65269">
        <ele>458.1</ele>
        <time>2016-06-01T13:11:59Z</time>
      </trkpt>
      <trkpt lat="43.28214" lon="5.65267">
        <ele>458.2</ele>
        <time>2016-06-01T13:12:00Z</time>
      </trkpt>
      <trkpt lat="43.28219" lon="5.65221">
        <ele>455.6</ele>
        <time>2016-06-01T13:12:29Z</time>
      </trkpt>
      <trkpt lat="43.28214" lon="5.65198">
        <ele>456</ele>
        <time>2016-06-01T13:12:43Z</time>
      </trkpt>
      <trkpt lat="43.28208" lon="5.65177">
        <ele>455.5</ele>
        <time>2016-06-01T13:12:57Z</time>
      </trkpt>
      <trkpt lat="43.28199" lon="5.65155">
        <ele>455.2</ele>
        <time>2016-06-01T13:13:10Z</time>
      </trkpt>
      <trkpt lat="43.28199" lon="5.65154">
        <ele>454.6</ele>
        <time>2016-06-01T13:13:11Z</time>
      </trkpt>
      <trkpt lat="43.28184" lon="5.65112">
        <ele>450.8</ele>
        <time>2016-06-01T13:13:40Z</time>
      </trkpt>
      <trkpt lat="43.28175" lon="5.65093">
        <ele>450.7</ele>
        <time>2016-06-01T13:13:54Z</time>
      </trkpt>
      <trkpt lat="43.28158" lon="5.65099">
        <ele>450.2</ele>
        <time>2016-06-01T13:14:13Z</time>
      </trkpt>
      <trkpt lat="43.28157" lon="5.651">
        <ele>450.5</ele>
        <time>2016-06-01T13:14:14Z</time>
      </trkpt>
      <trkpt lat="43.28138" lon="5.65137">
        <ele>449.7</ele>
        <time>2016-06-01T13:14:44Z</time>
      </trkpt>
      <trkpt lat="43.28127" lon="5.65156">
        <ele>453.7</ele>
        <time>2016-06-01T13:14:59Z</time>
      </trkpt>
      <trkpt lat="43.28118" lon="5.65177">
        <ele>451.8</ele>
        <time>2016-06-01T13:15:14Z</time>
      </trkpt>
      <trkpt lat="43.28117" lon="5.65178">
        <ele>451.6</ele>
        <time>2016-06-01T13:15:15Z</time>
      </trkpt>
      <trkpt lat="43.28098" lon="5.65215">
        <ele>451.7</ele>
        <time>2016-06-01T13:15:41Z</time>
      </trkpt>
      <trkpt lat="43.28091" lon="5.65237">
        <ele>449.7</ele>
        <time>2016-06-01T13:16:10Z</time>
      </trkpt>
      <trkpt lat="43.28088" lon="5.65261">
        <ele>451.8</ele>
        <time>2016-06-01T13:18:33Z</time>
      </trkpt>
      <trkpt lat="43.28088" lon="5.65262">
        <ele>451.6</ele>
        <time>2016-06-01T13:18:34Z</time>
      </trkpt>
      <trkpt lat="43.28067" lon="5.65299">
        <ele>450.2</ele>
        <time>2016-06-01T13:19:28Z</time>
      </trkpt>
      <trkpt lat="43.28058" lon="5.65319">
        <ele>448.7</ele>
        <time>2016-06-01T13:19:49Z</time>
      </trkpt>
      <trkpt lat="43.28058" lon="5.6532">
        <ele>448.3</ele>
        <time>2016-06-01T13:19:50Z</time>
      </trkpt>
      <trkpt lat="43.28042" lon="5.65361">
        <ele>442.8</ele>
        <time>2016-06-01T13:20:23Z</time>
      </trkpt>
      <trkpt lat="43.28034" lon="5.65382">
        <ele>441.6</ele>
        <time>2016-06-01T13:20:39Z</time>
      </trkpt>
      <trkpt lat="43.28025" lon="5.65404">
        <ele>440.1</ele>
        <time>2016-06-01T13:20:56Z</time>
      </trkpt>
      <trkpt lat="43.28025" lon="5.65405">
        <ele>440</ele>
        <time>2016-06-01T13:20:57Z</time>
      </trkpt>
      <trkpt lat="43.28003" lon="5.6544">
        <ele>444.3</ele>
        <time>2016-06-01T13:21:25Z</time>
      </trkpt>
      <trkpt lat="43.27989" lon="5.65454">
        <ele>446.7</ele>
        <time>2016-06-01T13:21:39Z</time>
      </trkpt>
      <trkpt lat="43.27974" lon="5.65467">
        <ele>443.6</ele>
        <time>2016-06-01T13:21:56Z</time>
      </trkpt>
      <trkpt lat="43.27957" lon="5.65473">
        <ele>446.7</ele>
        <time>2016-06-01T13:22:09Z</time>
      </trkpt>
      <trkpt lat="43.27956" lon="5.65473">
        <ele>447.1</ele>
        <time>2016-06-01T13:22:10Z</time>
      </trkpt>
      <trkpt lat="43.27924" lon="5.65466">
        <ele>450.6</ele>
        <time>2016-06-01T13:22:37Z</time>
      </trkpt>
      <trkpt lat="43.27908" lon="5.65459">
        <ele>450</ele>
        <time>2016-06-01T13:22:51Z</time>
      </trkpt>
      <trkpt lat="43.27891" lon="5.65453">
        <ele>449.1</ele>
        <time>2016-06-01T13:23:05Z</time>
      </trkpt>
      <trkpt lat="43.27874" lon="5.65454">
        <ele>445.7</ele>
        <time>2016-06-01T13:23:20Z</time>
      </trkpt>
      <trkpt lat="43.27873" lon="5.65454">
        <ele>445.5</ele>
        <time>2016-06-01T13:23:21Z</time>
      </trkpt>
      <trkpt lat="43.27839" lon="5.65456">
        <ele>440.1</ele>
        <time>2016-06-01T13:23:51Z</time>
      </trkpt>
      <trkpt lat="43.27823" lon="5.65466">
        <ele>436.7</ele>
        <time>2016-06-01T13:24:08Z</time>
      </trkpt>
      <trkpt lat="43.27814" lon="5.65487">
        <ele>434.6</ele>
        <time>2016-06-01T13:24:24Z</time>
      </trkpt>
      <trkpt lat="43.27814" lon="5.65488">
        <ele>434.1</ele>
        <time>2016-06-01T13:24:25Z</time>
      </trkpt>
      <trkpt lat="43.27797" lon="5.65528">
        <ele>435.2</ele>
        <time>2016-06-01T13:24:54Z</time>
      </trkpt>
      <trkpt lat="43.27787" lon="5.65546">
        <ele>436.6</ele>
        <time>2016-06-01T13:25:08Z</time>
      </trkpt>
      <trkpt lat="43.27775" lon="5.65564">
        <ele>437.7</ele>
        <time>2016-06-01T13:25:21Z</time>
      </trkpt>
      <trkpt lat="43.2776" lon="5.65577">
        <ele>438.7</ele>
        <time>2016-06-01T13:25:35Z</time>
      </trkpt>
      <trkpt lat="43.27759" lon="5.65578">
        <ele>438.6</ele>
        <time>2016-06-01T13:25:36Z</time>
      </trkpt>
      <trkpt lat="43.27728" lon="5.65594">
        <ele>439.5</ele>
        <time>2016-06-01T13:26:02Z</time>
      </trkpt>
      <trkpt lat="43.27711" lon="5.656">
        <ele>441.8</ele>
        <time>2016-06-01T13:26:18Z</time>
      </trkpt>
      <trkpt lat="43.27695" lon="5.65611">
        <ele>442.6</ele>
        <time>2016-06-01T13:26:34Z</time>
      </trkpt>
      <trkpt lat="43.27679" lon="5.65619">
        <ele>442.7</ele>
        <time>2016-06-01T13:26:51Z</time>
      </trkpt>
      <trkpt lat="43.27678" lon="5.65619">
        <ele>443</ele>
        <time>2016-06-01T13:26:52Z</time>
      </trkpt>
      <trkpt lat="43.27645" lon="5.65629">
        <ele>444.7</ele>
        <time>2016-06-01T13:27:22Z</time>
      </trkpt>
      <trkpt lat="43.27628" lon="5.65633">
        <ele>445.1</ele>
        <time>2016-06-01T13:27:37Z</time>
      </trkpt>
      <trkpt lat="43.2761" lon="5.65634">
        <ele>446.3</ele>
        <time>2016-06-01T13:27:53Z</time>
      </trkpt>
      <trkpt lat="43.27609" lon="5.65634">
        <ele>446.6</ele>
        <time>2016-06-01T13:27:54Z</time>
      </trkpt>
      <trkpt lat="43.27576" lon="5.6564">
        <ele>449.6</ele>
        <time>2016-06-01T13:28:24Z</time>
      </trkpt>
      <trkpt lat="43.27559" lon="5.65642">
        <ele>450.6</ele>
        <time>2016-06-01T13:28:39Z</time>
      </trkpt>
      <trkpt lat="43.27542" lon="5.65649">
        <ele>452.3</ele>
        <time>2016-06-01T13:28:54Z</time>
      </trkpt>
      <trkpt lat="43.27541" lon="5.6565">
        <ele>452.5</ele>
        <time>2016-06-01T13:28:55Z</time>
      </trkpt>
      <trkpt lat="43.27527" lon="5.65691">
        <ele>451.1</ele>
        <time>2016-06-01T13:29:25Z</time>
      </trkpt>
      <trkpt lat="43.2752" lon="5.65714">
        <ele>451.5</ele>
        <time>2016-06-01T13:29:42Z</time>
      </trkpt>
      <trkpt lat="43.27514" lon="5.65736">
        <ele>451.5</ele>
        <time>2016-06-01T13:29:59Z</time>
      </trkpt>
      <trkpt lat="43.27514" lon="5.65737">
        <ele>451.5</ele>
        <time>2016-06-01T13:30:00Z</time>
      </trkpt>
      <trkpt lat="43.27499" lon="5.6578">
        <ele>456.7</ele>
        <time>2016-06-01T13:30:34Z</time>
      </trkpt>
      <trkpt lat="43.27499" lon="5.65804">
        <ele>457.5</ele>
        <time>2016-06-01T13:30:53Z</time>
      </trkpt>
      <trkpt lat="43.27504" lon="5.65827">
        <ele>458.7</ele>
        <time>2016-06-01T13:31:11Z</time>
      </trkpt>
      <trkpt lat="43.27504" lon="5.65828">
        <ele>458.7</ele>
        <time>2016-06-01T13:31:12Z</time>
      </trkpt>
      <trkpt lat="43.27523" lon="5.65867">
        <ele>461.2</ele>
        <time>2016-06-01T13:31:47Z</time>
      </trkpt>
      <trkpt lat="43.27533" lon="5.65887">
        <ele>461.7</ele>
        <time>2016-06-01T13:32:06Z</time>
      </trkpt>
      <trkpt lat="43.27549" lon="5.65898">
        <ele>461.3</ele>
        <time>2016-06-01T13:34:36Z</time>
      </trkpt>
      <trkpt lat="43.2755" lon="5.65899">
        <ele>461.5</ele>
        <time>2016-06-01T13:34:37Z</time>
      </trkpt>
      <trkpt lat="43.27578" lon="5.65926">
        <ele>461.2</ele>
        <time>2016-06-01T13:35:13Z</time>
      </trkpt>
      <trkpt lat="43.27592" lon="5.65941">
        <ele>462.7</ele>
        <time>2016-06-01T13:35:32Z</time>
      </trkpt>
      <trkpt lat="43.27606" lon="5.65957">
        <ele>460.3</ele>
        <time>2016-06-01T13:35:49Z</time>
      </trkpt>
      <trkpt lat="43.27607" lon="5.65958">
        <ele>460</ele>
        <time>2016-06-01T13:35:50Z</time>
      </trkpt>
      <trkpt lat="43.27622" lon="5.65999">
        <ele>459.8</ele>
        <time>2016-06-01T13:36:19Z</time>
      </trkpt>
      <trkpt lat="43.27628" lon="5.66022">
        <ele>459.5</ele>
        <time>2016-06-01T13:36:36Z</time>
      </trkpt>
      <trkpt lat="43.27638" lon="5.66042">
        <ele>459.7</ele>
        <time>2016-06-01T13:36:51Z</time>
      </trkpt>
      <trkpt lat="43.27639" lon="5.66043">
        <ele>459.7</ele>
        <time>2016-06-01T13:36:52Z</time>
      </trkpt>
      <trkpt lat="43.27664" lon="5.66074">
        <ele>457.3</ele>
        <time>2016-06-01T13:37:23Z</time>
      </trkpt>
      <trkpt lat="43.27679" lon="5.66083">
        <ele>455.2</ele>
        <time>2016-06-01T13:37:39Z</time>
      </trkpt>
      <trkpt lat="43.27696" lon="5.66084">
        <ele>453.8</ele>
        <time>2016-06-01T13:37:52Z</time>
      </trkpt>
      <trkpt lat="43.27698" lon="5.66084">
        <ele>454.1</ele>
        <time>2016-06-01T13:37:53Z</time>
      </trkpt>
      <trkpt lat="43.2772" lon="5.66115">
        <ele>449.1</ele>
        <time>2016-06-01T13:38:24Z</time>
      </trkpt>
      <trkpt lat="43.2773" lon="5.66135">
        <ele>449</ele>
        <time>2016-06-01T13:38:38Z</time>
      </trkpt>
      <trkpt lat="43.27741" lon="5.66154">
        <ele>449.6</ele>
        <time>2016-06-01T13:38:52Z</time>
      </trkpt>
      <trkpt lat="43.27752" lon="5.66173">
        <ele>449.7</ele>
        <time>2016-06-01T13:39:06Z</time>
      </trkpt>
      <trkpt lat="43.27752" lon="5.66175">
        <ele>450</ele>
        <time>2016-06-01T13:39:07Z</time>
      </trkpt>
      <trkpt lat="43.27778" lon="5.66205">
        <ele>450.3</ele>
        <time>2016-06-01T13:39:36Z</time>
      </trkpt>
      <trkpt lat="43.27791" lon="5.66219">
        <ele>450.3</ele>
        <time>2016-06-01T13:39:50Z</time>
      </trkpt>
      <trkpt lat="43.27803" lon="5.66237">
        <ele>451</ele>
        <time>2016-06-01T13:40:04Z</time>
      </trkpt>
      <trkpt lat="43.27811" lon="5.66258">
        <ele>450.7</ele>
        <time>2016-06-01T13:40:19Z</time>
      </trkpt>
      <trkpt lat="43.27811" lon="5.6626">
        <ele>450.7</ele>
        <time>2016-06-01T13:40:20Z</time>
      </trkpt>
      <trkpt lat="43.27807" lon="5.66307">
        <ele>454.7</ele>
        <time>2016-06-01T13:40:55Z</time>
      </trkpt>
      <trkpt lat="43.27806" lon="5.6633">
        <ele>456.2</ele>
        <time>2016-06-01T13:41:10Z</time>
      </trkpt>
      <trkpt lat="43.2781" lon="5.66353">
        <ele>456.3</ele>
        <time>2016-06-01T13:41:24Z</time>
      </trkpt>
      <trkpt lat="43.2781" lon="5.66354">
        <ele>456.3</ele>
        <time>2016-06-01T13:41:25Z</time>
      </trkpt>
      <trkpt lat="43.27807" lon="5.66399">
        <ele>452.6</ele>
        <time>2016-06-01T13:41:57Z</time>
      </trkpt>
      <trkpt lat="43.27799" lon="5.6642">
        <ele>455.3</ele>
        <time>2016-06-01T13:42:12Z</time>
      </trkpt>
      <trkpt lat="43.27797" lon="5.66444">
        <ele>456.1</ele>
        <time>2016-06-01T13:42:28Z</time>
      </trkpt>
      <trkpt lat="43.27797" lon="5.66445">
        <ele>456</ele>
        <time>2016-06-01T13:42:29Z</time>
      </trkpt>
      <trkpt lat="43.27805" lon="5.66492">
        <ele>457.2</ele>
        <time>2016-06-01T13:43:04Z</time>
      </trkpt>
      <trkpt lat="43.27812" lon="5.66514">
        <ele>457.7</ele>
        <time>2016-06-01T13:43:21Z</time>
      </trkpt>
      <trkpt lat="43.2782" lon="5.66536">
        <ele>458.6</ele>
        <time>2016-06-01T13:43:39Z</time>
      </trkpt>
      <trkpt lat="43.2782" lon="5.66537">
        <ele>458.7</ele>
        <time>2016-06-01T13:43:40Z</time>
      </trkpt>
      <trkpt lat="43.2784" lon="5.66574">
        <ele>462.2</ele>
        <time>2016-06-01T13:44:19Z</time>
      </trkpt>
      <trkpt lat="43.27857" lon="5.66581">
        <ele>466.7</ele>
        <time>2016-06-01T13:44:41Z</time>
      </trkpt>
      <trkpt lat="43.27858" lon="5.66581">
        <ele>466.7</ele>
        <time>2016-06-01T13:44:42Z</time>
      </trkpt>
      <trkpt lat="43.27888" lon="5.66601">
        <ele>471.7</ele>
        <time>2016-06-01T13:45:38Z</time>
      </trkpt>
      <trkpt lat="43.27874" lon="5.66616">
        <ele>473.2</ele>
        <time>2016-06-01T13:46:29Z</time>
      </trkpt>
      <trkpt lat="43.27873" lon="5.66616">
        <ele>473</ele>
        <time>2016-06-01T13:46:30Z</time>
      </trkpt>
      <trkpt lat="43.2784" lon="5.6661">
        <ele>471.1</ele>
        <time>2016-06-01T13:47:01Z</time>
      </trkpt>
      <trkpt lat="43.27822" lon="5.66607">
        <ele>470.2</ele>
        <time>2016-06-01T13:47:18Z</time>
      </trkpt>
      <trkpt lat="43.27806" lon="5.66602">
        <ele>471.6</ele>
        <time>2016-06-01T13:47:33Z</time>
      </trkpt>
      <trkpt lat="43.27805" lon="5.66601">
        <ele>471.7</ele>
        <time>2016-06-01T13:47:34Z</time>
      </trkpt>
      <trkpt lat="43.27772" lon="5.6659">
        <ele>471.8</ele>
        <time>2016-06-01T13:48:04Z</time>
      </trkpt>
      <trkpt lat="43.27755" lon="5.66582">
        <ele>470.6</ele>
        <time>2016-06-01T13:48:20Z</time>
      </trkpt>
      <trkpt lat="43.27738" lon="5.66572">
        <ele>470.7</ele>
        <time>2016-06-01T13:48:35Z</time>
      </trkpt>
      <trkpt lat="43.27737" lon="5.66572">
        <ele>470.6</ele>
        <time>2016-06-01T13:48:36Z</time>
      </trkpt>
      <trkpt lat="43.27705" lon="5.66563">
        <ele>467.2</ele>
        <time>2016-06-01T13:49:03Z</time>
      </trkpt>
      <trkpt lat="43.27688" lon="5.66562">
        <ele>466.2</ele>
        <time>2016-06-01T13:49:18Z</time>
      </trkpt>
      <trkpt lat="43.27671" lon="5.66563">
        <ele>465.2</ele>
        <time>2016-06-01T13:49:33Z</time>
      </trkpt>
      <trkpt lat="43.27654" lon="5.66563">
        <ele>465.2</ele>
        <time>2016-06-01T13:49:48Z</time>
      </trkpt>
      <trkpt lat="43.27652" lon="5.66563">
        <ele>465.2</ele>
        <time>2016-06-01T13:49:49Z</time>
      </trkpt>
      <trkpt lat="43.27622" lon="5.66579">
        <ele>466.3</ele>
        <time>2016-06-01T13:50:22Z</time>
      </trkpt>
      <trkpt lat="43.27612" lon="5.66597">
        <ele>468</ele>
        <time>2016-06-01T13:50:39Z</time>
      </trkpt>
      <trkpt lat="43.27604" lon="5.6662">
        <ele>469.2</ele>
        <time>2016-06-01T13:50:53Z</time>
      </trkpt>
      <trkpt lat="43.27603" lon="5.66621">
        <ele>469.6</ele>
        <time>2016-06-01T13:50:54Z</time>
      </trkpt>
      <trkpt lat="43.27585" lon="5.6666">
        <ele>470.6</ele>
        <time>2016-06-01T13:51:26Z</time>
      </trkpt>
      <trkpt lat="43.27574" lon="5.66678">
        <ele>471.5</ele>
        <time>2016-06-01T13:51:41Z</time>
      </trkpt>
      <trkpt lat="43.27561" lon="5.66695">
        <ele>470.2</ele>
        <time>2016-06-01T13:51:57Z</time>
      </trkpt>
      <trkpt lat="43.27561" lon="5.66697">
        <ele>470.1</ele>
        <time>2016-06-01T13:51:58Z</time>
      </trkpt>
      <trkpt lat="43.27534" lon="5.66726">
        <ele>471</ele>
        <time>2016-06-01T13:52:31Z</time>
      </trkpt>
      <trkpt lat="43.27525" lon="5.66747">
        <ele>473.2</ele>
        <time>2016-06-01T13:53:10Z</time>
      </trkpt>
      <trkpt lat="43.27525" lon="5.66748">
        <ele>472.8</ele>
        <time>2016-06-01T13:53:11Z</time>
      </trkpt>
      <trkpt lat="43.27501" lon="5.66781">
        <ele>465.2</ele>
        <time>2016-06-01T13:53:44Z</time>
      </trkpt>
      <trkpt lat="43.27485" lon="5.6679">
        <ele>466.8</ele>
        <time>2016-06-01T13:54:18Z</time>
      </trkpt>
      <trkpt lat="43.27484" lon="5.6679">
        <ele>466.8</ele>
        <time>2016-06-01T13:54:19Z</time>
      </trkpt>
      <trkpt lat="43.27452" lon="5.66784">
        <ele>457.3</ele>
        <time>2016-06-01T13:55:05Z</time>
      </trkpt>
      <trkpt lat="43.27434" lon="5.66784">
        <ele>454.1</ele>
        <time>2016-06-01T13:55:31Z</time>
      </trkpt>
      <trkpt lat="43.27434" lon="5.66784">
        <ele>454.2</ele>
        <time>2016-06-01T13:55:32Z</time>
      </trkpt>
      <trkpt lat="43.27402" lon="5.66783">
        <ele>438.2</ele>
        <time>2016-06-01T13:56:22Z</time>
      </trkpt>
      <trkpt lat="43.27386" lon="5.66773">
        <ele>442.1</ele>
        <time>2016-06-01T13:56:36Z</time>
      </trkpt>
      <trkpt lat="43.27385" lon="5.66772">
        <ele>442.5</ele>
        <time>2016-06-01T13:56:37Z</time>
      </trkpt>
      <trkpt lat="43.27354" lon="5.66755">
        <ele>441.8</ele>
        <time>2016-06-01T13:57:07Z</time>
      </trkpt>
      <trkpt lat="43.27337" lon="5.66748">
        <ele>440.2</ele>
        <time>2016-06-01T13:57:22Z</time>
      </trkpt>
      <trkpt lat="43.2732" lon="5.66743">
        <ele>442</ele>
        <time>2016-06-01T13:57:37Z</time>
      </trkpt>
      <trkpt lat="43.27319" lon="5.66743">
        <ele>442.2</ele>
        <time>2016-06-01T13:57:38Z</time>
      </trkpt>
      <trkpt lat="43.27286" lon="5.66737">
        <ele>444.7</ele>
        <time>2016-06-01T13:58:06Z</time>
      </trkpt>
      <trkpt lat="43.27268" lon="5.66733">
        <ele>442.6</ele>
        <time>2016-06-01T13:58:22Z</time>
      </trkpt>
      <trkpt lat="43.27252" lon="5.66724">
        <ele>441.7</ele>
        <time>2016-06-01T13:58:37Z</time>
      </trkpt>
      <trkpt lat="43.27237" lon="5.66713">
        <ele>442.2</ele>
        <time>2016-06-01T13:58:51Z</time>
      </trkpt>
      <trkpt lat="43.27236" lon="5.66712">
        <ele>442.2</ele>
        <time>2016-06-01T13:58:52Z</time>
      </trkpt>
      <trkpt lat="43.27203" lon="5.66698">
        <ele>451</ele>
        <time>2016-06-01T14:00:59Z</time>
      </trkpt>
      <trkpt lat="43.27202" lon="5.66698">
        <ele>450.7</ele>
        <time>2016-06-01T14:01:00Z</time>
      </trkpt>
      <trkpt lat="43.27168" lon="5.66698">
        <ele>442.2</ele>
        <time>2016-06-01T14:01:33Z</time>
      </trkpt>
      <trkpt lat="43.2715" lon="5.667">
        <ele>438.8</ele>
        <time>2016-06-01T14:01:50Z</time>
      </trkpt>
      <trkpt lat="43.27133" lon="5.66705">
        <ele>436.8</ele>
        <time>2016-06-01T14:02:07Z</time>
      </trkpt>
      <trkpt lat="43.27132" lon="5.66705">
        <ele>437</ele>
        <time>2016-06-01T14:02:08Z</time>
      </trkpt>
      <trkpt lat="43.271" lon="5.66719">
        <ele>435.1</ele>
        <time>2016-06-01T14:02:42Z</time>
      </trkpt>
      <trkpt lat="43.27087" lon="5.66735">
        <ele>429.7</ele>
        <time>2016-06-01T14:03:01Z</time>
      </trkpt>
      <trkpt lat="43.27077" lon="5.66716">
        <ele>424</ele>
        <time>2016-06-01T14:03:24Z</time>
      </trkpt>
      <trkpt lat="43.27077" lon="5.66715">
        <ele>423.7</ele>
        <time>2016-06-01T14:03:25Z</time>
      </trkpt>
      <trkpt lat="43.27078" lon="5.66669">
        <ele>421</ele>
        <time>2016-06-01T14:04:00Z</time>
      </trkpt>
      <trkpt lat="43.27085" lon="5.66648">
        <ele>418.2</ele>
        <time>2016-06-01T14:04:19Z</time>
      </trkpt>
      <trkpt lat="43.27096" lon="5.66629">
        <ele>415.6</ele>
        <time>2016-06-01T14:04:37Z</time>
      </trkpt>
      <trkpt lat="43.27097" lon="5.66628">
        <ele>415.5</ele>
        <time>2016-06-01T14:04:38Z</time>
      </trkpt>
      <trkpt lat="43.27124" lon="5.66601">
        <ele>409.5</ele>
        <time>2016-06-01T14:05:16Z</time>
      </trkpt>
      <trkpt lat="43.27141" lon="5.66592">
        <ele>403.6</ele>
        <time>2016-06-01T14:05:35Z</time>
      </trkpt>
      <trkpt lat="43.27155" lon="5.66578">
        <ele>403.5</ele>
        <time>2016-06-01T14:05:54Z</time>
      </trkpt>
      <trkpt lat="43.27155" lon="5.66577">
        <ele>403.2</ele>
        <time>2016-06-01T14:05:55Z</time>
      </trkpt>
      <trkpt lat="43.27127" lon="5.66554">
        <ele>397.6</ele>
        <time>2016-06-01T14:06:34Z</time>
      </trkpt>
      <trkpt lat="43.2711" lon="5.66552">
        <ele>376.6</ele>
        <time>2016-06-01T14:07:00Z</time>
      </trkpt>
      <trkpt lat="43.27109" lon="5.66552">
        <ele>376.1</ele>
        <time>2016-06-01T14:07:01Z</time>
      </trkpt>
      <trkpt lat="43.27076" lon="5.66551">
        <ele>361.1</ele>
        <time>2016-06-01T14:07:45Z</time>
      </trkpt>
      <trkpt lat="43.27058" lon="5.66544">
        <ele>355.2</ele>
        <time>2016-06-01T14:08:10Z</time>
      </trkpt>
      <trkpt lat="43.27057" lon="5.66544">
        <ele>355.5</ele>
        <time>2016-06-01T14:08:11Z</time>
      </trkpt>
      <trkpt lat="43.27025" lon="5.66529">
        <ele>351.8</ele>
        <time>2016-06-01T14:08:47Z</time>
      </trkpt>
      <trkpt lat="43.27009" lon="5.66521">
        <ele>348.3</ele>
        <time>2016-06-01T14:09:06Z</time>
      </trkpt>
      <trkpt lat="43.26992" lon="5.66516">
        <ele>348.8</ele>
        <time>2016-06-01T14:09:23Z</time>
      </trkpt>
      <trkpt lat="43.26991" lon="5.66515">
        <ele>348.7</ele>
        <time>2016-06-01T14:09:24Z</time>
      </trkpt>
      <trkpt lat="43.26959" lon="5.66501">
        <ele>350.1</ele>
        <time>2016-06-01T14:11:18Z</time>
      </trkpt>
      <trkpt lat="43.26958" lon="5.66501">
        <ele>349.7</ele>
        <time>2016-06-01T14:11:19Z</time>
      </trkpt>
      <trkpt lat="43.2694" lon="5.66496">
        <ele>350.3</ele>
        <time>2016-06-01T14:12:27Z</time>
      </trkpt>
      <trkpt lat="43.26909" lon="5.66504">
        <ele>345</ele>
        <time>2016-06-01T14:13:04Z</time>
      </trkpt>
      <trkpt lat="43.26899" lon="5.66525">
        <ele>341.1</ele>
        <time>2016-06-01T14:13:23Z</time>
      </trkpt>
      <trkpt lat="43.26892" lon="5.66548">
        <ele>337.5</ele>
        <time>2016-06-01T14:13:44Z</time>
      </trkpt>
      <trkpt lat="43.26892" lon="5.66549">
        <ele>337.2</ele>
        <time>2016-06-01T14:13:45Z</time>
      </trkpt>
      <trkpt lat="43.26877" lon="5.6659">
        <ele>331.8</ele>
        <time>2016-06-01T14:14:20Z</time>
      </trkpt>
      <trkpt lat="43.2687" lon="5.66612">
        <ele>327.3</ele>
        <time>2016-06-01T14:14:40Z</time>
      </trkpt>
      <trkpt lat="43.26863" lon="5.66633">
        <ele>322.5</ele>
        <time>2016-06-01T14:14:58Z</time>
      </trkpt>
      <trkpt lat="43.26862" lon="5.66634">
        <ele>321</ele>
        <time>2016-06-01T14:14:59Z</time>
      </trkpt>
      <trkpt lat="43.2685" lon="5.66678">
        <ele>317.7</ele>
        <time>2016-06-01T14:15:36Z</time>
      </trkpt>
      <trkpt lat="43.26847" lon="5.66701">
        <ele>313.7</ele>
        <time>2016-06-01T14:15:56Z</time>
      </trkpt>
      <trkpt lat="43.26845" lon="5.66725">
        <ele>310.8</ele>
        <time>2016-06-01T14:16:13Z</time>
      </trkpt>
      <trkpt lat="43.26845" lon="5.66726">
        <ele>311</ele>
        <time>2016-06-01T14:16:14Z</time>
      </trkpt>
      <trkpt lat="43.26843" lon="5.66773">
        <ele>304.7</ele>
        <time>2016-06-01T14:16:53Z</time>
      </trkpt>
      <trkpt lat="43.26841" lon="5.66797">
        <ele>300.3</ele>
        <time>2016-06-01T14:17:10Z</time>
      </trkpt>
      <trkpt lat="43.26842" lon="5.66821">
        <ele>296.5</ele>
        <time>2016-06-01T14:17:30Z</time>
      </trkpt>
      <trkpt lat="43.26842" lon="5.66821">
        <ele>295.7</ele>
        <time>2016-06-01T14:17:31Z</time>
      </trkpt>
      <trkpt lat="43.26846" lon="5.66869">
        <ele>291.6</ele>
        <time>2016-06-01T14:18:06Z</time>
      </trkpt>
      <trkpt lat="43.26847" lon="5.66892">
        <ele>286.2</ele>
        <time>2016-06-01T14:18:23Z</time>
      </trkpt>
      <trkpt lat="43.26846" lon="5.66915">
        <ele>284.1</ele>
        <time>2016-06-01T14:18:39Z</time>
      </trkpt>
      <trkpt lat="43.26846" lon="5.66917">
        <ele>284.2</ele>
        <time>2016-06-01T14:18:40Z</time>
      </trkpt>
      <trkpt lat="43.26852" lon="5.66961">
        <ele>271.6</ele>
        <time>2016-06-01T14:19:17Z</time>
      </trkpt>
      <trkpt lat="43.26848" lon="5.66985">
        <ele>274</ele>
        <time>2016-06-01T14:19:30Z</time>
      </trkpt>
      <trkpt lat="43.26835" lon="5.67002">
        <ele>286.2</ele>
        <time>2016-06-01T14:22:30Z</time>
      </trkpt>
      <trkpt lat="43.26835" lon="5.67004">
        <ele>285.8</ele>
        <time>2016-06-01T14:22:31Z</time>
      </trkpt>
    </trkseg>
  </trk>
</gpx>